<?xml version="1.0" encoding="UTF-8" standalone="no" ?>
<gpx xmlns="http://www.topografix.com/GPX/1/1" xmlns:xsi="http://www.w3.org/2001/XMLSchema-instance" xsi:schemaLocation="http://www.topografix.com/GPX/1/1 http://www.topografix.com/GPX/1/1/gpx.xsd" version="1.1" creator="VisuGPX - https://www.visugpx.com">
  <metadata>
    <name>15024333-Morvan 3 jours 3 lacs</name>
    <desc><![CDATA[Lac des settons Lac de panecière lac de chaumerçon]]></desc>
  </metadata>
  <trk>
    <name><![CDATA[15024333-Morvan 3 jours 3 lacs]]></name>
    <extensions>
      <line xmlns="http://www.topografix.com/GPX/gpx_style/0/2">
        <color>0000FF</color>
        <width>4</width>
      </line>
    </extensions>
    <trkseg>
      <trkpt lat="47.1976" lon="4.05847">
        <ele>597</ele>
        <time>2022-06-30T20:00:31Z</time>
      </trkpt>
      <trkpt lat="47.19776" lon="4.05717">
        <ele>595</ele>
        <time>2022-06-30T19:58:32Z</time>
      </trkpt>
      <trkpt lat="47.19834" lon="4.05454">
        <ele>592</ele>
        <time>2022-06-30T19:54:21Z</time>
      </trkpt>
      <trkpt lat="47.19861" lon="4.05417">
        <ele>596</ele>
        <time>2022-06-30T19:53:32Z</time>
      </trkpt>
      <trkpt lat="47.19914" lon="4.05444">
        <ele>608</ele>
        <time>2022-06-30T19:52:17Z</time>
      </trkpt>
      <trkpt lat="47.19951" lon="4.05393">
        <ele>615</ele>
        <time>2022-06-30T19:51:09Z</time>
      </trkpt>
      <trkpt lat="47.19994" lon="4.05371">
        <ele>620</ele>
        <time>2022-06-30T19:50:08Z</time>
      </trkpt>
      <trkpt lat="47.20112" lon="4.05444">
        <ele>618</ele>
        <time>2022-06-30T19:47:18Z</time>
      </trkpt>
      <trkpt lat="47.20283" lon="4.05459">
        <ele>610</ele>
        <time>2022-06-30T19:43:29Z</time>
      </trkpt>
      <trkpt lat="47.20493" lon="4.05425">
        <ele>599</ele>
        <time>2022-06-30T19:38:47Z</time>
      </trkpt>
      <trkpt lat="47.20691" lon="4.0533">
        <ele>600</ele>
        <time>2022-06-30T19:34:09Z</time>
      </trkpt>
      <trkpt lat="47.20765" lon="4.05076">
        <ele>595</ele>
        <time>2022-06-30T19:29:59Z</time>
      </trkpt>
      <trkpt lat="47.20796" lon="4.04926">
        <ele>593</ele>
        <time>2022-06-30T19:27:37Z</time>
      </trkpt>
      <trkpt lat="47.20911" lon="4.04678">
        <ele>590</ele>
        <time>2022-06-30T19:23:04Z</time>
      </trkpt>
      <trkpt lat="47.20961" lon="4.04562">
        <ele>590</ele>
        <time>2022-06-30T19:21:00Z</time>
      </trkpt>
      <trkpt lat="47.21046" lon="4.04396">
        <ele>590</ele>
        <time>2022-06-30T19:17:51Z</time>
      </trkpt>
      <trkpt lat="47.21175" lon="4.04154">
        <ele>579</ele>
        <time>2022-06-30T19:13:12Z</time>
      </trkpt>
      <trkpt lat="47.21181" lon="4.04053">
        <ele>572</ele>
        <time>2022-06-30T19:11:41Z</time>
      </trkpt>
      <trkpt lat="47.21224" lon="4.0399">
        <ele>565</ele>
        <time>2022-06-30T19:10:20Z</time>
      </trkpt>
      <trkpt lat="47.2123" lon="4.03948">
        <ele>562</ele>
        <time>2022-06-30T19:09:41Z</time>
      </trkpt>
      <trkpt lat="47.21384" lon="4.03892">
        <ele>546</ele>
        <time>2022-06-30T19:06:09Z</time>
      </trkpt>
      <trkpt lat="47.21539" lon="4.03892">
        <ele>537</ele>
        <time>2022-06-30T19:02:42Z</time>
      </trkpt>
      <trkpt lat="47.21661" lon="4.03795">
        <ele>534</ele>
        <time>2022-06-30T18:59:37Z</time>
      </trkpt>
      <trkpt lat="47.21655" lon="4.03741">
        <ele>532</ele>
        <time>2022-06-30T18:58:48Z</time>
      </trkpt>
      <trkpt lat="47.21605" lon="4.03614">
        <ele>538</ele>
        <time>2022-06-30T18:56:34Z</time>
      </trkpt>
      <trkpt lat="47.21502" lon="4.03485">
        <ele>539</ele>
        <time>2022-06-30T18:53:34Z</time>
      </trkpt>
      <trkpt lat="47.21481" lon="4.03318">
        <ele>554</ele>
        <time>2022-06-30T18:51:00Z</time>
      </trkpt>
      <trkpt lat="47.2149" lon="4.03159">
        <ele>570</ele>
        <time>2022-06-30T18:48:35Z</time>
      </trkpt>
      <trkpt lat="47.21453" lon="4.03029">
        <ele>572</ele>
        <time>2022-06-30T18:46:28Z</time>
      </trkpt>
      <trkpt lat="47.21478" lon="4.02777">
        <ele>572</ele>
        <time>2022-06-30T18:42:37Z</time>
      </trkpt>
      <trkpt lat="47.21455" lon="4.02506">
        <ele>575</ele>
        <time>2022-06-30T18:38:29Z</time>
      </trkpt>
      <trkpt lat="47.21513" lon="4.0212">
        <ele>577</ele>
        <time>2022-06-30T18:32:31Z</time>
      </trkpt>
      <trkpt lat="47.21583" lon="4.01725">
        <ele>584</ele>
        <time>2022-06-30T18:26:21Z</time>
      </trkpt>
      <trkpt lat="47.21554" lon="4.01262">
        <ele>567</ele>
        <time>2022-06-30T18:19:19Z</time>
      </trkpt>
      <trkpt lat="47.21521" lon="4.01133">
        <ele>554</ele>
        <time>2022-06-30T18:17:15Z</time>
      </trkpt>
      <trkpt lat="47.2155" lon="4.00978">
        <ele>534</ele>
        <time>2022-06-30T18:14:49Z</time>
      </trkpt>
      <trkpt lat="47.2155" lon="4.00787">
        <ele>514</ele>
        <time>2022-06-30T18:11:56Z</time>
      </trkpt>
      <trkpt lat="47.21592" lon="4.00711">
        <ele>509</ele>
        <time>2022-06-30T18:10:27Z</time>
      </trkpt>
      <trkpt lat="47.21589" lon="4.006">
        <ele>502</ele>
        <time>2022-06-30T18:08:46Z</time>
      </trkpt>
      <trkpt lat="47.21566" lon="4.00524">
        <ele>499</ele>
        <time>2022-06-30T18:07:31Z</time>
      </trkpt>
      <trkpt lat="47.21608" lon="4.00282">
        <ele>496</ele>
        <time>2022-06-30T18:03:44Z</time>
      </trkpt>
      <trkpt lat="47.21665" lon="4.00163">
        <ele>492</ele>
        <time>2022-06-30T18:01:32Z</time>
      </trkpt>
      <trkpt lat="47.21644" lon="4.00101">
        <ele>491</ele>
        <time>2022-06-30T18:00:30Z</time>
      </trkpt>
      <trkpt lat="47.217" lon="3.9976">
        <ele>509</ele>
        <time>2022-06-30T17:55:12Z</time>
      </trkpt>
      <trkpt lat="47.21725" lon="3.99538">
        <ele>513</ele>
        <time>2022-06-30T17:51:48Z</time>
      </trkpt>
      <trkpt lat="47.21799" lon="3.99442">
        <ele>510</ele>
        <time>2022-06-30T17:49:36Z</time>
      </trkpt>
      <trkpt lat="47.2194" lon="3.99315">
        <ele>506</ele>
        <time>2022-06-30T17:45:55Z</time>
      </trkpt>
      <trkpt lat="47.22155" lon="3.99288">
        <ele>503</ele>
        <time>2022-06-30T17:41:07Z</time>
      </trkpt>
      <trkpt lat="47.22289" lon="3.99228">
        <ele>517</ele>
        <time>2022-06-30T17:38:01Z</time>
      </trkpt>
      <trkpt lat="47.2237" lon="3.99116">
        <ele>524</ele>
        <time>2022-06-30T17:35:32Z</time>
      </trkpt>
      <trkpt lat="47.22469" lon="3.99185">
        <ele>535</ele>
        <time>2022-06-30T17:33:06Z</time>
      </trkpt>
      <trkpt lat="47.22574" lon="3.99296">
        <ele>552</ele>
        <time>2022-06-30T17:30:14Z</time>
      </trkpt>
      <trkpt lat="47.22912" lon="3.99288">
        <ele>568</ele>
        <time>2022-06-30T17:22:43Z</time>
      </trkpt>
      <trkpt lat="47.23018" lon="3.99065">
        <ele>558</ele>
        <time>2022-06-30T17:18:36Z</time>
      </trkpt>
      <trkpt lat="47.23007" lon="3.99007">
        <ele>553</ele>
        <time>2022-06-30T17:17:41Z</time>
      </trkpt>
      <trkpt lat="47.22965" lon="3.98955">
        <ele>551</ele>
        <time>2022-06-30T17:16:28Z</time>
      </trkpt>
      <trkpt lat="47.22936" lon="3.98867">
        <ele>551</ele>
        <time>2022-06-30T17:14:59Z</time>
      </trkpt>
      <trkpt lat="47.22996" lon="3.98735">
        <ele>556</ele>
        <time>2022-06-30T17:12:35Z</time>
      </trkpt>
      <trkpt lat="47.22995" lon="3.98673">
        <ele>558</ele>
        <time>2022-06-30T17:11:39Z</time>
      </trkpt>
      <trkpt lat="47.22892" lon="3.98542">
        <ele>562</ele>
        <time>2022-06-30T17:08:38Z</time>
      </trkpt>
      <trkpt lat="47.22843" lon="3.98378">
        <ele>556</ele>
        <time>2022-06-30T17:05:55Z</time>
      </trkpt>
      <trkpt lat="47.22866" lon="3.98278">
        <ele>559</ele>
        <time>2022-06-30T17:04:20Z</time>
      </trkpt>
      <trkpt lat="47.22965" lon="3.98155">
        <ele>566</ele>
        <time>2022-06-30T17:01:27Z</time>
      </trkpt>
      <trkpt lat="47.22982" lon="3.97897">
        <ele>554</ele>
        <time>2022-06-30T16:57:32Z</time>
      </trkpt>
      <trkpt lat="47.23087" lon="3.97726">
        <ele>554</ele>
        <time>2022-06-30T16:54:03Z</time>
      </trkpt>
      <trkpt lat="47.23142" lon="3.97587">
        <ele>558</ele>
        <time>2022-06-30T16:51:37Z</time>
      </trkpt>
      <trkpt lat="47.23169" lon="3.97452">
        <ele>561</ele>
        <time>2022-06-30T16:49:30Z</time>
      </trkpt>
      <trkpt lat="47.23237" lon="3.97183">
        <ele>561</ele>
        <time>2022-06-30T16:45:10Z</time>
      </trkpt>
      <trkpt lat="47.23268" lon="3.97168">
        <ele>563</ele>
        <time>2022-06-30T16:44:26Z</time>
      </trkpt>
      <trkpt lat="47.23285" lon="3.97056">
        <ele>559</ele>
        <time>2022-06-30T16:42:42Z</time>
      </trkpt>
      <trkpt lat="47.23391" lon="3.96997">
        <ele>556</ele>
        <time>2022-06-30T16:40:11Z</time>
      </trkpt>
      <trkpt lat="47.23396" lon="3.96936">
        <ele>551</ele>
        <time>2022-06-30T16:39:15Z</time>
      </trkpt>
      <trkpt lat="47.23507" lon="3.96876">
        <ele>538</ele>
        <time>2022-06-30T16:36:37Z</time>
      </trkpt>
      <trkpt lat="47.23577" lon="3.96799">
        <ele>527</ele>
        <time>2022-06-30T16:34:41Z</time>
      </trkpt>
      <trkpt lat="47.23656" lon="3.96633">
        <ele>507</ele>
        <time>2022-06-30T16:31:37Z</time>
      </trkpt>
      <trkpt lat="47.23703" lon="3.96579">
        <ele>497</ele>
        <time>2022-06-30T16:30:18Z</time>
      </trkpt>
      <trkpt lat="47.23857" lon="3.96671">
        <ele>479</ele>
        <time>2022-06-30T16:26:36Z</time>
      </trkpt>
      <trkpt lat="47.23973" lon="3.96899">
        <ele>477</ele>
        <time>2022-06-30T16:22:18Z</time>
      </trkpt>
      <trkpt lat="47.24015" lon="3.96896">
        <ele>477</ele>
        <time>2022-06-30T16:21:22Z</time>
      </trkpt>
      <trkpt lat="47.24013" lon="3.96722">
        <ele>474</ele>
        <time>2022-06-30T16:18:44Z</time>
      </trkpt>
      <trkpt lat="47.24107" lon="3.96481">
        <ele>471</ele>
        <time>2022-06-30T16:14:32Z</time>
      </trkpt>
      <trkpt lat="47.24132" lon="3.9638">
        <ele>479</ele>
        <time>2022-06-30T16:12:55Z</time>
      </trkpt>
      <trkpt lat="47.24262" lon="3.96251">
        <ele>503</ele>
        <time>2022-06-30T16:09:25Z</time>
      </trkpt>
      <trkpt lat="47.24385" lon="3.9616">
        <ele>521</ele>
        <time>2022-06-30T16:06:22Z</time>
      </trkpt>
      <trkpt lat="47.24504" lon="3.96093">
        <ele>527</ele>
        <time>2022-06-30T16:03:32Z</time>
      </trkpt>
      <trkpt lat="47.24555" lon="3.9608">
        <ele>530</ele>
        <time>2022-06-30T16:02:23Z</time>
      </trkpt>
      <trkpt lat="47.24589" lon="3.96023">
        <ele>528</ele>
        <time>2022-06-30T16:01:14Z</time>
      </trkpt>
      <trkpt lat="47.2473" lon="3.95887">
        <ele>509</ele>
        <time>2022-06-30T15:57:29Z</time>
      </trkpt>
      <trkpt lat="47.24764" lon="3.95786">
        <ele>514</ele>
        <time>2022-06-30T15:55:47Z</time>
      </trkpt>
      <trkpt lat="47.24767" lon="3.95701">
        <ele>515</ele>
        <time>2022-06-30T15:54:30Z</time>
      </trkpt>
      <trkpt lat="47.24824" lon="3.95563">
        <ele>518</ele>
        <time>2022-06-30T15:52:04Z</time>
      </trkpt>
      <trkpt lat="47.2487" lon="3.95432">
        <ele>518</ele>
        <time>2022-06-30T15:49:50Z</time>
      </trkpt>
      <trkpt lat="47.24938" lon="3.95309">
        <ele>519</ele>
        <time>2022-06-30T15:47:26Z</time>
      </trkpt>
      <trkpt lat="47.24923" lon="3.95206">
        <ele>520</ele>
        <time>2022-06-30T15:45:51Z</time>
      </trkpt>
      <trkpt lat="47.24994" lon="3.95105">
        <ele>520</ele>
        <time>2022-06-30T15:43:39Z</time>
      </trkpt>
      <trkpt lat="47.25082" lon="3.95038">
        <ele>518</ele>
        <time>2022-06-30T15:41:27Z</time>
      </trkpt>
      <trkpt lat="47.25111" lon="3.95008">
        <ele>513</ele>
        <time>2022-06-30T15:40:40Z</time>
      </trkpt>
      <trkpt lat="47.25203" lon="3.94988">
        <ele>505</ele>
        <time>2022-06-30T15:38:35Z</time>
      </trkpt>
      <trkpt lat="47.25173" lon="3.94882">
        <ele>492</ele>
        <time>2022-06-30T15:36:51Z</time>
      </trkpt>
      <trkpt lat="47.25161" lon="3.94793">
        <ele>485</ele>
        <time>2022-06-30T15:35:29Z</time>
      </trkpt>
      <trkpt lat="47.25226" lon="3.945">
        <ele>452</ele>
        <time>2022-06-30T15:30:50Z</time>
      </trkpt>
      <trkpt lat="47.25277" lon="3.94396">
        <ele>449</ele>
        <time>2022-06-30T15:28:54Z</time>
      </trkpt>
      <trkpt lat="47.25267" lon="3.94346">
        <ele>449</ele>
        <time>2022-06-30T15:28:07Z</time>
      </trkpt>
      <trkpt lat="47.25295" lon="3.94246">
        <ele>443</ele>
        <time>2022-06-30T15:26:29Z</time>
      </trkpt>
      <trkpt lat="47.25331" lon="3.94239">
        <ele>441</ele>
        <time>2022-06-30T15:25:40Z</time>
      </trkpt>
      <trkpt lat="47.25355" lon="3.94178">
        <ele>435</ele>
        <time>2022-06-30T15:24:36Z</time>
      </trkpt>
      <trkpt lat="47.25431" lon="3.9417">
        <ele>430</ele>
        <time>2022-06-30T15:22:55Z</time>
      </trkpt>
      <trkpt lat="47.25478" lon="3.9412">
        <ele>432</ele>
        <time>2022-06-30T15:21:37Z</time>
      </trkpt>
      <trkpt lat="47.2556" lon="3.94176">
        <ele>435</ele>
        <time>2022-06-30T15:19:37Z</time>
      </trkpt>
      <trkpt lat="47.25579" lon="3.94231">
        <ele>438</ele>
        <time>2022-06-30T15:18:41Z</time>
      </trkpt>
      <trkpt lat="47.25674" lon="3.94262">
        <ele>432</ele>
        <time>2022-06-30T15:16:31Z</time>
      </trkpt>
      <trkpt lat="47.25868" lon="3.94304">
        <ele>425</ele>
        <time>2022-06-30T15:12:09Z</time>
      </trkpt>
      <trkpt lat="47.25971" lon="3.94056">
        <ele>410</ele>
        <time>2022-06-30T15:07:46Z</time>
      </trkpt>
      <trkpt lat="47.26064" lon="3.93906">
        <ele>407</ele>
        <time>2022-06-30T15:04:42Z</time>
      </trkpt>
      <trkpt lat="47.26091" lon="3.93793">
        <ele>407</ele>
        <time>2022-06-30T15:02:53Z</time>
      </trkpt>
      <trkpt lat="47.26133" lon="3.93759">
        <ele>408</ele>
        <time>2022-06-30T15:01:49Z</time>
      </trkpt>
      <trkpt lat="47.26187" lon="3.93666">
        <ele>410</ele>
        <time>2022-06-30T14:59:59Z</time>
      </trkpt>
      <trkpt lat="47.26206" lon="3.93406">
        <ele>418</ele>
        <time>2022-06-30T14:56:02Z</time>
      </trkpt>
      <trkpt lat="47.26234" lon="3.93389">
        <ele>419</ele>
        <time>2022-06-30T14:55:21Z</time>
      </trkpt>
      <trkpt lat="47.26297" lon="3.93368">
        <ele>419</ele>
        <time>2022-06-30T14:53:55Z</time>
      </trkpt>
      <trkpt lat="47.26413" lon="3.93246">
        <ele>423</ele>
        <time>2022-06-30T14:50:45Z</time>
      </trkpt>
      <trkpt lat="47.2649" lon="3.93221">
        <ele>423</ele>
        <time>2022-06-30T14:49:00Z</time>
      </trkpt>
      <trkpt lat="47.26572" lon="3.93234">
        <ele>424</ele>
        <time>2022-06-30T14:47:10Z</time>
      </trkpt>
      <trkpt lat="47.26633" lon="3.93304">
        <ele>426</ele>
        <time>2022-06-30T14:45:27Z</time>
      </trkpt>
      <trkpt lat="47.2671" lon="3.9336">
        <ele>434</ele>
        <time>2022-06-30T14:43:32Z</time>
      </trkpt>
      <trkpt lat="47.26777" lon="3.93351">
        <ele>436</ele>
        <time>2022-06-30T14:42:02Z</time>
      </trkpt>
      <trkpt lat="47.2684" lon="3.93351">
        <ele>436</ele>
        <time>2022-06-30T14:40:38Z</time>
      </trkpt>
      <trkpt lat="47.26917" lon="3.93332">
        <ele>435</ele>
        <time>2022-06-30T14:38:54Z</time>
      </trkpt>
      <trkpt lat="47.2702" lon="3.93402">
        <ele>442</ele>
        <time>2022-06-30T14:36:23Z</time>
      </trkpt>
      <trkpt lat="47.27059" lon="3.93383">
        <ele>442</ele>
        <time>2022-06-30T14:35:28Z</time>
      </trkpt>
      <trkpt lat="47.27171" lon="3.93392">
        <ele>448</ele>
        <time>2022-06-30T14:32:58Z</time>
      </trkpt>
      <trkpt lat="47.27247" lon="3.93468">
        <ele>452</ele>
        <time>2022-06-30T14:30:56Z</time>
      </trkpt>
      <trkpt lat="47.27326" lon="3.93536">
        <ele>454</ele>
        <time>2022-06-30T14:28:53Z</time>
      </trkpt>
      <trkpt lat="47.2741" lon="3.93666">
        <ele>462</ele>
        <time>2022-06-30T14:26:11Z</time>
      </trkpt>
      <trkpt lat="47.27548" lon="3.93857">
        <ele>478</ele>
        <time>2022-06-30T14:21:58Z</time>
      </trkpt>
      <trkpt lat="47.27615" lon="3.9401">
        <ele>478</ele>
        <time>2022-06-30T14:19:13Z</time>
      </trkpt>
      <trkpt lat="47.2766" lon="3.94054">
        <ele>472</ele>
        <time>2022-06-30T14:18:01Z</time>
      </trkpt>
      <trkpt lat="47.2769" lon="3.94007">
        <ele>476</ele>
        <time>2022-06-30T14:17:03Z</time>
      </trkpt>
      <trkpt lat="47.27703" lon="3.93873">
        <ele>479</ele>
        <time>2022-06-30T14:15:00Z</time>
      </trkpt>
      <trkpt lat="47.27774" lon="3.93736">
        <ele>473</ele>
        <time>2022-06-30T14:12:24Z</time>
      </trkpt>
      <trkpt lat="47.27923" lon="3.93537">
        <ele>473</ele>
        <time>2022-06-30T14:07:56Z</time>
      </trkpt>
      <trkpt lat="47.27958" lon="3.93445">
        <ele>474</ele>
        <time>2022-06-30T14:06:20Z</time>
      </trkpt>
      <trkpt lat="47.28031" lon="3.93353">
        <ele>479</ele>
        <time>2022-06-30T14:04:12Z</time>
      </trkpt>
      <trkpt lat="47.27975" lon="3.93271">
        <ele>477</ele>
        <time>2022-06-30T14:02:27Z</time>
      </trkpt>
      <trkpt lat="47.27996" lon="3.93197">
        <ele>484</ele>
        <time>2022-06-30T14:01:14Z</time>
      </trkpt>
      <trkpt lat="47.28048" lon="3.93236">
        <ele>488</ele>
        <time>2022-06-30T13:59:57Z</time>
      </trkpt>
      <trkpt lat="47.28076" lon="3.93234">
        <ele>491</ele>
        <time>2022-06-30T13:59:19Z</time>
      </trkpt>
      <trkpt lat="47.28051" lon="3.93142">
        <ele>493</ele>
        <time>2022-06-30T13:57:49Z</time>
      </trkpt>
      <trkpt lat="47.28049" lon="3.93042">
        <ele>497</ele>
        <time>2022-06-30T13:56:19Z</time>
      </trkpt>
      <trkpt lat="47.28031" lon="3.92987">
        <ele>497</ele>
        <time>2022-06-30T13:55:24Z</time>
      </trkpt>
      <trkpt lat="47.27989" lon="3.92934">
        <ele>494</ele>
        <time>2022-06-30T13:54:10Z</time>
      </trkpt>
      <trkpt lat="47.27933" lon="3.92904">
        <ele>488</ele>
        <time>2022-06-30T13:52:50Z</time>
      </trkpt>
      <trkpt lat="47.27855" lon="3.92766">
        <ele>484</ele>
        <time>2022-06-30T13:50:08Z</time>
      </trkpt>
      <trkpt lat="47.2779" lon="3.92545">
        <ele>463</ele>
        <time>2022-06-30T13:46:30Z</time>
      </trkpt>
      <trkpt lat="47.27984" lon="3.9231">
        <ele>459</ele>
        <time>2022-06-30T13:40:54Z</time>
      </trkpt>
      <trkpt lat="47.27982" lon="3.92279">
        <ele>458</ele>
        <time>2022-06-30T13:40:26Z</time>
      </trkpt>
      <trkpt lat="47.27962" lon="3.92252">
        <ele>453</ele>
        <time>2022-06-30T13:39:50Z</time>
      </trkpt>
      <trkpt lat="47.27985" lon="3.92131">
        <ele>463</ele>
        <time>2022-06-30T13:37:56Z</time>
      </trkpt>
      <trkpt lat="47.28353" lon="3.91906">
        <ele>431</ele>
        <time>2022-06-30T13:29:05Z</time>
      </trkpt>
      <trkpt lat="47.28476" lon="3.91886">
        <ele>424</ele>
        <time>2022-06-30T13:26:20Z</time>
      </trkpt>
      <trkpt lat="47.28586" lon="3.91833">
        <ele>412</ele>
        <time>2022-06-30T13:23:45Z</time>
      </trkpt>
      <trkpt lat="47.28635" lon="3.91824">
        <ele>411</ele>
        <time>2022-06-30T13:22:39Z</time>
      </trkpt>
      <trkpt lat="47.28674" lon="3.91781">
        <ele>408</ele>
        <time>2022-06-30T13:21:34Z</time>
      </trkpt>
      <trkpt lat="47.28714" lon="3.91806">
        <ele>410</ele>
        <time>2022-06-30T13:20:36Z</time>
      </trkpt>
      <trkpt lat="47.28719" lon="3.91871">
        <ele>412</ele>
        <time>2022-06-30T13:19:37Z</time>
      </trkpt>
      <trkpt lat="47.28736" lon="3.91931">
        <ele>411</ele>
        <time>2022-06-30T13:18:38Z</time>
      </trkpt>
      <trkpt lat="47.28719" lon="3.92013">
        <ele>409</ele>
        <time>2022-06-30T13:17:21Z</time>
      </trkpt>
      <trkpt lat="47.28721" lon="3.92133">
        <ele>405</ele>
        <time>2022-06-30T13:15:32Z</time>
      </trkpt>
      <trkpt lat="47.28749" lon="3.92215">
        <ele>400</ele>
        <time>2022-06-30T13:14:09Z</time>
      </trkpt>
      <trkpt lat="47.28781" lon="3.92216">
        <ele>404</ele>
        <time>2022-06-30T13:13:26Z</time>
      </trkpt>
      <trkpt lat="47.28799" lon="3.92186">
        <ele>406</ele>
        <time>2022-06-30T13:12:50Z</time>
      </trkpt>
      <trkpt lat="47.288" lon="3.92115">
        <ele>404</ele>
        <time>2022-06-30T13:11:46Z</time>
      </trkpt>
      <trkpt lat="47.28825" lon="3.9206">
        <ele>402</ele>
        <time>2022-06-30T13:10:46Z</time>
      </trkpt>
      <trkpt lat="47.28883" lon="3.92027">
        <ele>405</ele>
        <time>2022-06-30T13:09:23Z</time>
      </trkpt>
      <trkpt lat="47.28994" lon="3.91949">
        <ele>404</ele>
        <time>2022-06-30T13:06:39Z</time>
      </trkpt>
      <trkpt lat="47.29081" lon="3.91958">
        <ele>405</ele>
        <time>2022-06-30T13:04:42Z</time>
      </trkpt>
      <trkpt lat="47.29163" lon="3.92018">
        <ele>409</ele>
        <time>2022-06-30T13:02:40Z</time>
      </trkpt>
      <trkpt lat="47.29184" lon="3.92125">
        <ele>413</ele>
        <time>2022-06-30T13:00:59Z</time>
      </trkpt>
      <trkpt lat="47.29226" lon="3.9215">
        <ele>412</ele>
        <time>2022-06-30T12:59:59Z</time>
      </trkpt>
      <trkpt lat="47.29414" lon="3.92139">
        <ele>407</ele>
        <time>2022-06-30T12:55:48Z</time>
      </trkpt>
      <trkpt lat="47.29458" lon="3.92159">
        <ele>411</ele>
        <time>2022-06-30T12:54:46Z</time>
      </trkpt>
      <trkpt lat="47.29489" lon="3.92138">
        <ele>409</ele>
        <time>2022-06-30T12:54:01Z</time>
      </trkpt>
      <trkpt lat="47.29524" lon="3.92069">
        <ele>401</ele>
        <time>2022-06-30T12:52:43Z</time>
      </trkpt>
      <trkpt lat="47.29625" lon="3.92038">
        <ele>401</ele>
        <time>2022-06-30T12:50:25Z</time>
      </trkpt>
      <trkpt lat="47.29706" lon="3.92038">
        <ele>404</ele>
        <time>2022-06-30T12:48:37Z</time>
      </trkpt>
      <trkpt lat="47.29727" lon="3.92026">
        <ele>404</ele>
        <time>2022-06-30T12:48:07Z</time>
      </trkpt>
      <trkpt lat="47.29735" lon="3.92005">
        <ele>402</ele>
        <time>2022-06-30T12:47:45Z</time>
      </trkpt>
      <trkpt lat="47.29731" lon="3.91974">
        <ele>403</ele>
        <time>2022-06-30T12:47:17Z</time>
      </trkpt>
      <trkpt lat="47.29692" lon="3.91888">
        <ele>398</ele>
        <time>2022-06-30T12:45:43Z</time>
      </trkpt>
      <trkpt lat="47.29704" lon="3.91854">
        <ele>399</ele>
        <time>2022-06-30T12:45:08Z</time>
      </trkpt>
      <trkpt lat="47.29806" lon="3.91773">
        <ele>402</ele>
        <time>2022-06-30T12:42:34Z</time>
      </trkpt>
      <trkpt lat="47.29884" lon="3.9179">
        <ele>406</ele>
        <time>2022-06-30T12:40:48Z</time>
      </trkpt>
      <trkpt lat="47.29959" lon="3.91783">
        <ele>401</ele>
        <time>2022-06-30T12:39:08Z</time>
      </trkpt>
      <trkpt lat="47.30034" lon="3.91833">
        <ele>402</ele>
        <time>2022-06-30T12:37:18Z</time>
      </trkpt>
      <trkpt lat="47.30073" lon="3.9192">
        <ele>407</ele>
        <time>2022-06-30T12:35:44Z</time>
      </trkpt>
      <trkpt lat="47.30093" lon="3.91932">
        <ele>407</ele>
        <time>2022-06-30T12:35:15Z</time>
      </trkpt>
      <trkpt lat="47.30186" lon="3.91919">
        <ele>404</ele>
        <time>2022-06-30T12:33:10Z</time>
      </trkpt>
      <trkpt lat="47.30338" lon="3.91823">
        <ele>396</ele>
        <time>2022-06-30T12:29:30Z</time>
      </trkpt>
      <trkpt lat="47.30352" lon="3.91788">
        <ele>392</ele>
        <time>2022-06-30T12:28:53Z</time>
      </trkpt>
      <trkpt lat="47.30231" lon="3.91619">
        <ele>390</ele>
        <time>2022-06-30T12:25:11Z</time>
      </trkpt>
      <trkpt lat="47.30183" lon="3.91572">
        <ele>393</ele>
        <time>2022-06-30T12:23:54Z</time>
      </trkpt>
      <trkpt lat="47.30164" lon="3.91538">
        <ele>395</ele>
        <time>2022-06-30T12:23:14Z</time>
      </trkpt>
      <trkpt lat="47.30169" lon="3.91473">
        <ele>397</ele>
        <time>2022-06-30T12:22:15Z</time>
      </trkpt>
      <trkpt lat="47.30193" lon="3.91354">
        <ele>401</ele>
        <time>2022-06-30T12:20:22Z</time>
      </trkpt>
      <trkpt lat="47.30217" lon="3.91318">
        <ele>404</ele>
        <time>2022-06-30T12:19:37Z</time>
      </trkpt>
      <trkpt lat="47.30227" lon="3.91268">
        <ele>407</ele>
        <time>2022-06-30T12:18:49Z</time>
      </trkpt>
      <trkpt lat="47.30209" lon="3.91252">
        <ele>405</ele>
        <time>2022-06-30T12:18:21Z</time>
      </trkpt>
      <trkpt lat="47.30214" lon="3.91234">
        <ele>407</ele>
        <time>2022-06-30T12:18:04Z</time>
      </trkpt>
      <trkpt lat="47.30203" lon="3.91225">
        <ele>406</ele>
        <time>2022-06-30T12:17:47Z</time>
      </trkpt>
      <trkpt lat="47.30187" lon="3.91236">
        <ele>402</ele>
        <time>2022-06-30T12:17:23Z</time>
      </trkpt>
      <trkpt lat="47.30184" lon="3.91227">
        <ele>402</ele>
        <time>2022-06-30T12:17:14Z</time>
      </trkpt>
      <trkpt lat="47.30185" lon="3.91196">
        <ele>405</ele>
        <time>2022-06-30T12:16:46Z</time>
      </trkpt>
      <trkpt lat="47.30183" lon="3.9118">
        <ele>405</ele>
        <time>2022-06-30T12:16:32Z</time>
      </trkpt>
      <trkpt lat="47.30175" lon="3.91182">
        <ele>404</ele>
        <time>2022-06-30T12:16:21Z</time>
      </trkpt>
      <trkpt lat="47.30171" lon="3.91197">
        <ele>402</ele>
        <time>2022-06-30T12:16:06Z</time>
      </trkpt>
      <trkpt lat="47.30161" lon="3.9116">
        <ele>405</ele>
        <time>2022-06-30T12:15:30Z</time>
      </trkpt>
      <trkpt lat="47.30142" lon="3.91148">
        <ele>405</ele>
        <time>2022-06-30T12:15:02Z</time>
      </trkpt>
      <trkpt lat="47.30137" lon="3.91135">
        <ele>406</ele>
        <time>2022-06-30T12:14:49Z</time>
      </trkpt>
      <trkpt lat="47.3011" lon="3.91125">
        <ele>405</ele>
        <time>2022-06-30T12:14:12Z</time>
      </trkpt>
      <trkpt lat="47.30073" lon="3.91098">
        <ele>405</ele>
        <time>2022-06-30T12:13:17Z</time>
      </trkpt>
      <trkpt lat="47.30064" lon="3.91121">
        <ele>404</ele>
        <time>2022-06-30T12:12:53Z</time>
      </trkpt>
      <trkpt lat="47.30067" lon="3.91139">
        <ele>403</ele>
        <time>2022-06-30T12:12:36Z</time>
      </trkpt>
      <trkpt lat="47.30097" lon="3.91185">
        <ele>400</ele>
        <time>2022-06-30T12:11:38Z</time>
      </trkpt>
      <trkpt lat="47.30096" lon="3.91209">
        <ele>400</ele>
        <time>2022-06-30T12:11:16Z</time>
      </trkpt>
      <trkpt lat="47.30075" lon="3.91253">
        <ele>400</ele>
        <time>2022-06-30T12:10:28Z</time>
      </trkpt>
      <trkpt lat="47.30049" lon="3.91285">
        <ele>401</ele>
        <time>2022-06-30T12:09:43Z</time>
      </trkpt>
      <trkpt lat="47.30022" lon="3.91338">
        <ele>400</ele>
        <time>2022-06-30T12:08:43Z</time>
      </trkpt>
      <trkpt lat="47.29971" lon="3.91313">
        <ele>402</ele>
        <time>2022-06-30T12:07:31Z</time>
      </trkpt>
      <trkpt lat="47.29913" lon="3.91264">
        <ele>402</ele>
        <time>2022-06-30T12:06:02Z</time>
      </trkpt>
      <trkpt lat="47.29903" lon="3.91282">
        <ele>401</ele>
        <time>2022-06-30T12:05:41Z</time>
      </trkpt>
      <trkpt lat="47.29851" lon="3.91326">
        <ele>397</ele>
        <time>2022-06-30T12:04:21Z</time>
      </trkpt>
      <trkpt lat="47.29818" lon="3.91327">
        <ele>396</ele>
        <time>2022-06-30T12:03:37Z</time>
      </trkpt>
      <trkpt lat="47.29754" lon="3.91281">
        <ele>395</ele>
        <time>2022-06-30T12:02:01Z</time>
      </trkpt>
      <trkpt lat="47.29728" lon="3.91233">
        <ele>398</ele>
        <time>2022-06-30T12:01:06Z</time>
      </trkpt>
      <trkpt lat="47.29712" lon="3.91232">
        <ele>399</ele>
        <time>2022-06-30T12:00:45Z</time>
      </trkpt>
      <trkpt lat="47.29707" lon="3.91258">
        <ele>399</ele>
        <time>2022-06-30T12:00:20Z</time>
      </trkpt>
      <trkpt lat="47.29665" lon="3.91343">
        <ele>397</ele>
        <time>2022-06-30T11:58:45Z</time>
      </trkpt>
      <trkpt lat="47.29636" lon="3.91361">
        <ele>395</ele>
        <time>2022-06-30T11:58:03Z</time>
      </trkpt>
      <trkpt lat="47.29562" lon="3.91347">
        <ele>393</ele>
        <time>2022-06-30T11:56:23Z</time>
      </trkpt>
      <trkpt lat="47.29531" lon="3.91315">
        <ele>395</ele>
        <time>2022-06-30T11:55:33Z</time>
      </trkpt>
      <trkpt lat="47.29482" lon="3.91251">
        <ele>395</ele>
        <time>2022-06-30T11:54:05Z</time>
      </trkpt>
      <trkpt lat="47.29442" lon="3.91222">
        <ele>396</ele>
        <time>2022-06-30T11:53:06Z</time>
      </trkpt>
      <trkpt lat="47.294" lon="3.91146">
        <ele>398</ele>
        <time>2022-06-30T11:51:37Z</time>
      </trkpt>
      <trkpt lat="47.29403" lon="3.91121">
        <ele>400</ele>
        <time>2022-06-30T11:51:14Z</time>
      </trkpt>
      <trkpt lat="47.2939" lon="3.91082">
        <ele>401</ele>
        <time>2022-06-30T11:50:35Z</time>
      </trkpt>
      <trkpt lat="47.29388" lon="3.9104">
        <ele>402</ele>
        <time>2022-06-30T11:49:57Z</time>
      </trkpt>
      <trkpt lat="47.29413" lon="3.90933">
        <ele>401</ele>
        <time>2022-06-30T11:48:14Z</time>
      </trkpt>
      <trkpt lat="47.29393" lon="3.90866">
        <ele>403</ele>
        <time>2022-06-30T11:47:08Z</time>
      </trkpt>
      <trkpt lat="47.29375" lon="3.90869">
        <ele>405</ele>
        <time>2022-06-30T11:46:44Z</time>
      </trkpt>
      <trkpt lat="47.29361" lon="3.90912">
        <ele>406</ele>
        <time>2022-06-30T11:46:01Z</time>
      </trkpt>
      <trkpt lat="47.29371" lon="3.90941">
        <ele>405</ele>
        <time>2022-06-30T11:45:31Z</time>
      </trkpt>
      <trkpt lat="47.29363" lon="3.90973">
        <ele>404</ele>
        <time>2022-06-30T11:45:01Z</time>
      </trkpt>
      <trkpt lat="47.29286" lon="3.91093">
        <ele>396</ele>
        <time>2022-06-30T11:42:31Z</time>
      </trkpt>
      <trkpt lat="47.29264" lon="3.91106">
        <ele>395</ele>
        <time>2022-06-30T11:41:59Z</time>
      </trkpt>
      <trkpt lat="47.29175" lon="3.91007">
        <ele>407</ele>
        <time>2022-06-30T11:39:31Z</time>
      </trkpt>
      <trkpt lat="47.29128" lon="3.90991">
        <ele>405</ele>
        <time>2022-06-30T11:38:26Z</time>
      </trkpt>
      <trkpt lat="47.29093" lon="3.90944">
        <ele>408</ele>
        <time>2022-06-30T11:37:23Z</time>
      </trkpt>
      <trkpt lat="47.29052" lon="3.90971">
        <ele>407</ele>
        <time>2022-06-30T11:36:23Z</time>
      </trkpt>
      <trkpt lat="47.29036" lon="3.91049">
        <ele>403</ele>
        <time>2022-06-30T11:35:09Z</time>
      </trkpt>
      <trkpt lat="47.28981" lon="3.91125">
        <ele>402</ele>
        <time>2022-06-30T11:33:29Z</time>
      </trkpt>
      <trkpt lat="47.28917" lon="3.91149">
        <ele>407</ele>
        <time>2022-06-30T11:32:01Z</time>
      </trkpt>
      <trkpt lat="47.28825" lon="3.91126">
        <ele>410</ele>
        <time>2022-06-30T11:29:56Z</time>
      </trkpt>
      <trkpt lat="47.28707" lon="3.91074">
        <ele>405</ele>
        <time>2022-06-30T11:27:12Z</time>
      </trkpt>
      <trkpt lat="47.2868" lon="3.91076">
        <ele>400</ele>
        <time>2022-06-30T11:26:36Z</time>
      </trkpt>
      <trkpt lat="47.28658" lon="3.9106">
        <ele>399</ele>
        <time>2022-06-30T11:26:03Z</time>
      </trkpt>
      <trkpt lat="47.28648" lon="3.91029">
        <ele>402</ele>
        <time>2022-06-30T11:25:32Z</time>
      </trkpt>
      <trkpt lat="47.28634" lon="3.91027">
        <ele>402</ele>
        <time>2022-06-30T11:25:13Z</time>
      </trkpt>
      <trkpt lat="47.28595" lon="3.91042">
        <ele>398</ele>
        <time>2022-06-30T11:24:19Z</time>
      </trkpt>
      <trkpt lat="47.28538" lon="3.91011">
        <ele>397</ele>
        <time>2022-06-30T11:22:58Z</time>
      </trkpt>
      <trkpt lat="47.28508" lon="3.90952">
        <ele>400</ele>
        <time>2022-06-30T11:21:52Z</time>
      </trkpt>
      <trkpt lat="47.28487" lon="3.90881">
        <ele>408</ele>
        <time>2022-06-30T11:20:41Z</time>
      </trkpt>
      <trkpt lat="47.28452" lon="3.90864">
        <ele>413</ele>
        <time>2022-06-30T11:19:52Z</time>
      </trkpt>
      <trkpt lat="47.28441" lon="3.90913">
        <ele>408</ele>
        <time>2022-06-30T11:19:05Z</time>
      </trkpt>
      <trkpt lat="47.28438" lon="3.9101">
        <ele>399</ele>
        <time>2022-06-30T11:17:38Z</time>
      </trkpt>
      <trkpt lat="47.28411" lon="3.91039">
        <ele>399</ele>
        <time>2022-06-30T11:16:53Z</time>
      </trkpt>
      <trkpt lat="47.28371" lon="3.91064">
        <ele>400</ele>
        <time>2022-06-30T11:15:55Z</time>
      </trkpt>
      <trkpt lat="47.28323" lon="3.91054">
        <ele>407</ele>
        <time>2022-06-30T11:14:50Z</time>
      </trkpt>
      <trkpt lat="47.28304" lon="3.91068">
        <ele>406</ele>
        <time>2022-06-30T11:14:22Z</time>
      </trkpt>
      <trkpt lat="47.28247" lon="3.91181">
        <ele>401</ele>
        <time>2022-06-30T11:12:15Z</time>
      </trkpt>
      <trkpt lat="47.28242" lon="3.91253">
        <ele>396</ele>
        <time>2022-06-30T11:11:09Z</time>
      </trkpt>
      <trkpt lat="47.28219" lon="3.91338">
        <ele>394</ele>
        <time>2022-06-30T11:09:46Z</time>
      </trkpt>
      <trkpt lat="47.28201" lon="3.9135">
        <ele>394</ele>
        <time>2022-06-30T11:09:20Z</time>
      </trkpt>
      <trkpt lat="47.28181" lon="3.91343">
        <ele>396</ele>
        <time>2022-06-30T11:08:52Z</time>
      </trkpt>
      <trkpt lat="47.28074" lon="3.91251">
        <ele>400</ele>
        <time>2022-06-30T11:06:07Z</time>
      </trkpt>
      <trkpt lat="47.28045" lon="3.91172">
        <ele>405</ele>
        <time>2022-06-30T11:04:46Z</time>
      </trkpt>
      <trkpt lat="47.28027" lon="3.91168">
        <ele>406</ele>
        <time>2022-06-30T11:04:21Z</time>
      </trkpt>
      <trkpt lat="47.28018" lon="3.91195">
        <ele>405</ele>
        <time>2022-06-30T11:03:54Z</time>
      </trkpt>
      <trkpt lat="47.28012" lon="3.91282">
        <ele>398</ele>
        <time>2022-06-30T11:02:35Z</time>
      </trkpt>
      <trkpt lat="47.2799" lon="3.91296">
        <ele>397</ele>
        <time>2022-06-30T11:02:03Z</time>
      </trkpt>
      <trkpt lat="47.27956" lon="3.91299">
        <ele>397</ele>
        <time>2022-06-30T11:01:18Z</time>
      </trkpt>
      <trkpt lat="47.2792" lon="3.91282">
        <ele>401</ele>
        <time>2022-06-30T11:00:27Z</time>
      </trkpt>
      <trkpt lat="47.27798" lon="3.91251">
        <ele>405</ele>
        <time>2022-06-30T10:57:42Z</time>
      </trkpt>
      <trkpt lat="47.27686" lon="3.91201">
        <ele>400</ele>
        <time>2022-06-30T10:55:06Z</time>
      </trkpt>
      <trkpt lat="47.27664" lon="3.91171">
        <ele>399</ele>
        <time>2022-06-30T10:54:26Z</time>
      </trkpt>
      <trkpt lat="47.27638" lon="3.91182">
        <ele>401</ele>
        <time>2022-06-30T10:53:50Z</time>
      </trkpt>
      <trkpt lat="47.27616" lon="3.9123">
        <ele>400</ele>
        <time>2022-06-30T10:52:57Z</time>
      </trkpt>
      <trkpt lat="47.27645" lon="3.91321">
        <ele>397</ele>
        <time>2022-06-30T10:51:26Z</time>
      </trkpt>
      <trkpt lat="47.27645" lon="3.91384">
        <ele>396</ele>
        <time>2022-06-30T10:50:29Z</time>
      </trkpt>
      <trkpt lat="47.27568" lon="3.91518">
        <ele>397</ele>
        <time>2022-06-30T10:47:50Z</time>
      </trkpt>
      <trkpt lat="47.27495" lon="3.91583">
        <ele>394</ele>
        <time>2022-06-30T10:45:56Z</time>
      </trkpt>
      <trkpt lat="47.27491" lon="3.91613">
        <ele>394</ele>
        <time>2022-06-30T10:45:29Z</time>
      </trkpt>
      <trkpt lat="47.27515" lon="3.91765">
        <ele>396</ele>
        <time>2022-06-30T10:43:07Z</time>
      </trkpt>
      <trkpt lat="47.27474" lon="3.91942">
        <ele>400</ele>
        <time>2022-06-30T10:40:18Z</time>
      </trkpt>
      <trkpt lat="47.27439" lon="3.92032">
        <ele>399</ele>
        <time>2022-06-30T10:38:44Z</time>
      </trkpt>
      <trkpt lat="47.27388" lon="3.92082">
        <ele>395</ele>
        <time>2022-06-30T10:37:22Z</time>
      </trkpt>
      <trkpt lat="47.27242" lon="3.92014">
        <ele>404</ele>
        <time>2022-06-30T10:33:58Z</time>
      </trkpt>
      <trkpt lat="47.27173" lon="3.92005">
        <ele>402</ele>
        <time>2022-06-30T10:32:26Z</time>
      </trkpt>
      <trkpt lat="47.27117" lon="3.92026">
        <ele>398</ele>
        <time>2022-06-30T10:31:09Z</time>
      </trkpt>
      <trkpt lat="47.27028" lon="3.92008">
        <ele>394</ele>
        <time>2022-06-30T10:29:09Z</time>
      </trkpt>
      <trkpt lat="47.26977" lon="3.91925">
        <ele>392</ele>
        <time>2022-06-30T10:27:27Z</time>
      </trkpt>
      <trkpt lat="47.26899" lon="3.91877">
        <ele>391</ele>
        <time>2022-06-30T10:25:34Z</time>
      </trkpt>
      <trkpt lat="47.26859" lon="3.91879">
        <ele>391</ele>
        <time>2022-06-30T10:24:41Z</time>
      </trkpt>
      <trkpt lat="47.26834" lon="3.91865">
        <ele>391</ele>
        <time>2022-06-30T10:24:05Z</time>
      </trkpt>
      <trkpt lat="47.26864" lon="3.91574">
        <ele>393</ele>
        <time>2022-06-30T10:19:39Z</time>
      </trkpt>
      <trkpt lat="47.26851" lon="3.91534">
        <ele>393</ele>
        <time>2022-06-30T10:18:59Z</time>
      </trkpt>
      <trkpt lat="47.2685" lon="3.91411">
        <ele>394</ele>
        <time>2022-06-30T10:17:07Z</time>
      </trkpt>
      <trkpt lat="47.26806" lon="3.91275">
        <ele>400</ele>
        <time>2022-06-30T10:14:51Z</time>
      </trkpt>
      <trkpt lat="47.26749" lon="3.91393">
        <ele>398</ele>
        <time>2022-06-30T10:12:40Z</time>
      </trkpt>
      <trkpt lat="47.26683" lon="3.91459">
        <ele>399</ele>
        <time>2022-06-30T10:10:53Z</time>
      </trkpt>
      <trkpt lat="47.2659" lon="3.91522">
        <ele>397</ele>
        <time>2022-06-30T10:08:37Z</time>
      </trkpt>
      <trkpt lat="47.26504" lon="3.91529">
        <ele>405</ele>
        <time>2022-06-30T10:06:42Z</time>
      </trkpt>
      <trkpt lat="47.26484" lon="3.91549">
        <ele>404</ele>
        <time>2022-06-30T10:06:09Z</time>
      </trkpt>
      <trkpt lat="47.26479" lon="3.91635">
        <ele>403</ele>
        <time>2022-06-30T10:04:51Z</time>
      </trkpt>
      <trkpt lat="47.26498" lon="3.91705">
        <ele>403</ele>
        <time>2022-06-30T10:03:43Z</time>
      </trkpt>
      <trkpt lat="47.26496" lon="3.91858">
        <ele>413</ele>
        <time>2022-06-30T10:01:24Z</time>
      </trkpt>
      <trkpt lat="47.26433" lon="3.91889">
        <ele>413</ele>
        <time>2022-06-30T09:59:56Z</time>
      </trkpt>
      <trkpt lat="47.26382" lon="3.91895">
        <ele>411</ele>
        <time>2022-06-30T09:58:48Z</time>
      </trkpt>
      <trkpt lat="47.2636" lon="3.91946">
        <ele>408</ele>
        <time>2022-06-30T09:57:53Z</time>
      </trkpt>
      <trkpt lat="47.26309" lon="3.91936">
        <ele>406</ele>
        <time>2022-06-30T09:56:44Z</time>
      </trkpt>
      <trkpt lat="47.26283" lon="3.91951">
        <ele>405</ele>
        <time>2022-06-30T09:56:07Z</time>
      </trkpt>
      <trkpt lat="47.26263" lon="3.92006">
        <ele>400</ele>
        <time>2022-06-30T09:55:10Z</time>
      </trkpt>
      <trkpt lat="47.26171" lon="3.92035">
        <ele>397</ele>
        <time>2022-06-30T09:53:05Z</time>
      </trkpt>
      <trkpt lat="47.26134" lon="3.92126">
        <ele>391</ele>
        <time>2022-06-30T09:51:29Z</time>
      </trkpt>
      <trkpt lat="47.26142" lon="3.92272">
        <ele>398</ele>
        <time>2022-06-30T09:49:16Z</time>
      </trkpt>
      <trkpt lat="47.26182" lon="3.9235">
        <ele>403</ele>
        <time>2022-06-30T09:47:48Z</time>
      </trkpt>
      <trkpt lat="47.26192" lon="3.92395">
        <ele>405</ele>
        <time>2022-06-30T09:47:05Z</time>
      </trkpt>
      <trkpt lat="47.26196" lon="3.92649">
        <ele>419</ele>
        <time>2022-06-30T09:43:15Z</time>
      </trkpt>
      <trkpt lat="47.26164" lon="3.9278">
        <ele>424</ele>
        <time>2022-06-30T09:41:09Z</time>
      </trkpt>
      <trkpt lat="47.26152" lon="3.9291">
        <ele>431</ele>
        <time>2022-06-30T09:39:10Z</time>
      </trkpt>
      <trkpt lat="47.26169" lon="3.93157">
        <ele>429</ele>
        <time>2022-06-30T09:35:25Z</time>
      </trkpt>
      <trkpt lat="47.26173" lon="3.93357">
        <ele>421</ele>
        <time>2022-06-30T09:32:24Z</time>
      </trkpt>
      <trkpt lat="47.26198" lon="3.93405">
        <ele>418</ele>
        <time>2022-06-30T09:31:29Z</time>
      </trkpt>
      <trkpt lat="47.26189" lon="3.93637">
        <ele>411</ele>
        <time>2022-06-30T09:27:58Z</time>
      </trkpt>
      <trkpt lat="47.26149" lon="3.93736">
        <ele>408</ele>
        <time>2022-06-30T09:26:14Z</time>
      </trkpt>
      <trkpt lat="47.26088" lon="3.93791">
        <ele>407</ele>
        <time>2022-06-30T09:24:39Z</time>
      </trkpt>
      <trkpt lat="47.26037" lon="3.93799">
        <ele>406</ele>
        <time>2022-06-30T09:23:30Z</time>
      </trkpt>
      <trkpt lat="47.2584" lon="3.93694">
        <ele>408</ele>
        <time>2022-06-30T09:18:51Z</time>
      </trkpt>
      <trkpt lat="47.2578" lon="3.93681">
        <ele>410</ele>
        <time>2022-06-30T09:17:30Z</time>
      </trkpt>
      <trkpt lat="47.25736" lon="3.93655">
        <ele>411</ele>
        <time>2022-06-30T09:16:26Z</time>
      </trkpt>
      <trkpt lat="47.25726" lon="3.93663">
        <ele>410</ele>
        <time>2022-06-30T09:16:11Z</time>
      </trkpt>
      <trkpt lat="47.25613" lon="3.93527">
        <ele>404</ele>
        <time>2022-06-30T09:12:57Z</time>
      </trkpt>
      <trkpt lat="47.25503" lon="3.93459">
        <ele>402</ele>
        <time>2022-06-30T09:10:17Z</time>
      </trkpt>
      <trkpt lat="47.25426" lon="3.93243">
        <ele>404</ele>
        <time>2022-06-30T09:06:36Z</time>
      </trkpt>
      <trkpt lat="47.25373" lon="3.93165">
        <ele>410</ele>
        <time>2022-06-30T09:04:56Z</time>
      </trkpt>
      <trkpt lat="47.25362" lon="3.93112">
        <ele>412</ele>
        <time>2022-06-30T09:04:06Z</time>
      </trkpt>
      <trkpt lat="47.25373" lon="3.92966">
        <ele>410</ele>
        <time>2022-06-30T09:01:53Z</time>
      </trkpt>
      <trkpt lat="47.25366" lon="3.92918">
        <ele>407</ele>
        <time>2022-06-30T09:01:09Z</time>
      </trkpt>
      <trkpt lat="47.25345" lon="3.92881">
        <ele>405</ele>
        <time>2022-06-30T09:00:25Z</time>
      </trkpt>
      <trkpt lat="47.25166" lon="3.92652">
        <ele>406</ele>
        <time>2022-06-30T08:55:09Z</time>
      </trkpt>
      <trkpt lat="47.24898" lon="3.9265">
        <ele>410</ele>
        <time>2022-06-30T08:49:11Z</time>
      </trkpt>
      <trkpt lat="47.24783" lon="3.92493">
        <ele>420</ele>
        <time>2022-06-30T08:45:42Z</time>
      </trkpt>
      <trkpt lat="47.24713" lon="3.9248">
        <ele>415</ele>
        <time>2022-06-30T08:44:08Z</time>
      </trkpt>
      <trkpt lat="47.2469" lon="3.92488">
        <ele>412</ele>
        <time>2022-06-30T08:43:36Z</time>
      </trkpt>
      <trkpt lat="47.24606" lon="3.9244">
        <ele>415</ele>
        <time>2022-06-30T08:41:36Z</time>
      </trkpt>
      <trkpt lat="47.24569" lon="3.92398">
        <ele>416</ele>
        <time>2022-06-30T08:40:33Z</time>
      </trkpt>
      <trkpt lat="47.24399" lon="3.92298">
        <ele>423</ele>
        <time>2022-06-30T08:36:29Z</time>
      </trkpt>
      <trkpt lat="47.24238" lon="3.92248">
        <ele>436</ele>
        <time>2022-06-30T08:32:50Z</time>
      </trkpt>
      <trkpt lat="47.24098" lon="3.92154">
        <ele>444</ele>
        <time>2022-06-30T08:29:24Z</time>
      </trkpt>
      <trkpt lat="47.24061" lon="3.92163">
        <ele>444</ele>
        <time>2022-06-30T08:28:34Z</time>
      </trkpt>
      <trkpt lat="47.23893" lon="3.92083">
        <ele>450</ele>
        <time>2022-06-30T08:24:39Z</time>
      </trkpt>
      <trkpt lat="47.2384" lon="3.92078">
        <ele>452</ele>
        <time>2022-06-30T08:23:28Z</time>
      </trkpt>
      <trkpt lat="47.23691" lon="3.92212">
        <ele>443</ele>
        <time>2022-06-30T08:19:35Z</time>
      </trkpt>
      <trkpt lat="47.23622" lon="3.92325">
        <ele>441</ele>
        <time>2022-06-30T08:17:17Z</time>
      </trkpt>
      <trkpt lat="47.23556" lon="3.92345">
        <ele>442</ele>
        <time>2022-06-30T08:15:47Z</time>
      </trkpt>
      <trkpt lat="47.23494" lon="3.92335">
        <ele>443</ele>
        <time>2022-06-30T08:14:24Z</time>
      </trkpt>
      <trkpt lat="47.23426" lon="3.92249">
        <ele>444</ele>
        <time>2022-06-30T08:12:24Z</time>
      </trkpt>
      <trkpt lat="47.23398" lon="3.92238">
        <ele>444</ele>
        <time>2022-06-30T08:11:46Z</time>
      </trkpt>
      <trkpt lat="47.23301" lon="3.92274">
        <ele>446</ele>
        <time>2022-06-30T08:09:32Z</time>
      </trkpt>
      <trkpt lat="47.23198" lon="3.92335">
        <ele>451</ele>
        <time>2022-06-30T08:07:04Z</time>
      </trkpt>
      <trkpt lat="47.23094" lon="3.92221">
        <ele>452</ele>
        <time>2022-06-30T08:04:11Z</time>
      </trkpt>
      <trkpt lat="47.23047" lon="3.91982">
        <ele>463</ele>
        <time>2022-06-30T08:00:26Z</time>
      </trkpt>
      <trkpt lat="47.22962" lon="3.91887">
        <ele>464</ele>
        <time>2022-06-30T07:58:03Z</time>
      </trkpt>
      <trkpt lat="47.22851" lon="3.91923">
        <ele>475</ele>
        <time>2022-06-30T07:55:31Z</time>
      </trkpt>
      <trkpt lat="47.22808" lon="3.92048">
        <ele>474</ele>
        <time>2022-06-30T07:53:25Z</time>
      </trkpt>
      <trkpt lat="47.22749" lon="3.92127">
        <ele>478</ele>
        <time>2022-06-30T07:51:38Z</time>
      </trkpt>
      <trkpt lat="47.2271" lon="3.92119">
        <ele>479</ele>
        <time>2022-06-30T07:50:46Z</time>
      </trkpt>
      <trkpt lat="47.22657" lon="3.92023">
        <ele>485</ele>
        <time>2022-06-30T07:48:53Z</time>
      </trkpt>
      <trkpt lat="47.22594" lon="3.92177">
        <ele>484</ele>
        <time>2022-06-30T07:46:11Z</time>
      </trkpt>
      <trkpt lat="47.22559" lon="3.92352">
        <ele>480</ele>
        <time>2022-06-30T07:43:25Z</time>
      </trkpt>
      <trkpt lat="47.22443" lon="3.92451">
        <ele>468</ele>
        <time>2022-06-30T07:40:26Z</time>
      </trkpt>
      <trkpt lat="47.22357" lon="3.92476">
        <ele>463</ele>
        <time>2022-06-30T07:38:29Z</time>
      </trkpt>
      <trkpt lat="47.22229" lon="3.92545">
        <ele>460</ele>
        <time>2022-06-30T07:35:27Z</time>
      </trkpt>
      <trkpt lat="47.2212" lon="3.92643">
        <ele>469</ele>
        <time>2022-06-30T07:32:37Z</time>
      </trkpt>
      <trkpt lat="47.21981" lon="3.92713">
        <ele>497</ele>
        <time>2022-06-30T07:29:21Z</time>
      </trkpt>
      <trkpt lat="47.21836" lon="3.92811">
        <ele>512</ele>
        <time>2022-06-30T07:25:48Z</time>
      </trkpt>
      <trkpt lat="47.21703" lon="3.9283">
        <ele>526</ele>
        <time>2022-06-30T07:22:50Z</time>
      </trkpt>
      <trkpt lat="47.21533" lon="3.92784">
        <ele>547</ele>
        <time>2022-06-30T07:18:59Z</time>
      </trkpt>
      <trkpt lat="47.21347" lon="3.92665">
        <ele>557</ele>
        <time>2022-06-30T07:14:28Z</time>
      </trkpt>
      <trkpt lat="47.21246" lon="3.92548">
        <ele>553</ele>
        <time>2022-06-30T07:11:37Z</time>
      </trkpt>
      <trkpt lat="47.21176" lon="3.92396">
        <ele>549</ele>
        <time>2022-06-30T07:08:50Z</time>
      </trkpt>
      <trkpt lat="47.21131" lon="3.92341">
        <ele>549</ele>
        <time>2022-06-30T07:07:32Z</time>
      </trkpt>
      <trkpt lat="47.20893" lon="3.9219">
        <ele>548</ele>
        <time>2022-06-30T07:01:47Z</time>
      </trkpt>
      <trkpt lat="47.20722" lon="3.9219">
        <ele>551</ele>
        <time>2022-06-30T06:57:58Z</time>
      </trkpt>
      <trkpt lat="47.20347" lon="3.9232">
        <ele>552</ele>
        <time>2022-06-30T06:49:24Z</time>
      </trkpt>
      <trkpt lat="47.20245" lon="3.92308">
        <ele>555</ele>
        <time>2022-06-30T06:47:08Z</time>
      </trkpt>
      <trkpt lat="47.20171" lon="3.92302">
        <ele>550</ele>
        <time>2022-06-30T06:45:29Z</time>
      </trkpt>
      <trkpt lat="47.19966" lon="3.9222">
        <ele>536</ele>
        <time>2022-06-30T06:40:45Z</time>
      </trkpt>
      <trkpt lat="47.19819" lon="3.92182">
        <ele>534</ele>
        <time>2022-06-30T06:37:26Z</time>
      </trkpt>
      <trkpt lat="47.19717" lon="3.92109">
        <ele>523</ele>
        <time>2022-06-30T06:34:55Z</time>
      </trkpt>
      <trkpt lat="47.197" lon="3.92078">
        <ele>519</ele>
        <time>2022-06-30T06:34:19Z</time>
      </trkpt>
      <trkpt lat="47.19657" lon="3.92095">
        <ele>520</ele>
        <time>2022-06-30T06:33:19Z</time>
      </trkpt>
      <trkpt lat="47.19549" lon="3.9205">
        <ele>511</ele>
        <time>2022-06-30T06:30:49Z</time>
      </trkpt>
      <trkpt lat="47.19498" lon="3.9204">
        <ele>512</ele>
        <time>2022-06-30T06:29:41Z</time>
      </trkpt>
      <trkpt lat="47.19462" lon="3.91996">
        <ele>510</ele>
        <time>2022-06-30T06:28:38Z</time>
      </trkpt>
      <trkpt lat="47.19346" lon="3.92022">
        <ele>506</ele>
        <time>2022-06-30T06:26:02Z</time>
      </trkpt>
      <trkpt lat="47.19281" lon="3.92083">
        <ele>502</ele>
        <time>2022-06-30T06:24:19Z</time>
      </trkpt>
      <trkpt lat="47.19237" lon="3.92168">
        <ele>497</ele>
        <time>2022-06-30T06:22:42Z</time>
      </trkpt>
      <trkpt lat="47.19218" lon="3.92128">
        <ele>497</ele>
        <time>2022-06-30T06:21:58Z</time>
      </trkpt>
      <trkpt lat="47.18988" lon="3.91902">
        <ele>489</ele>
        <time>2022-06-30T06:15:49Z</time>
      </trkpt>
      <trkpt lat="47.18902" lon="3.91874">
        <ele>489</ele>
        <time>2022-06-30T06:13:51Z</time>
      </trkpt>
      <trkpt lat="47.18706" lon="3.91954">
        <ele>481</ele>
        <time>2022-06-30T06:09:20Z</time>
      </trkpt>
      <trkpt lat="47.18653" lon="3.9206">
        <ele>474</ele>
        <time>2022-06-30T06:07:20Z</time>
      </trkpt>
      <trkpt lat="47.18639" lon="3.92216">
        <ele>468</ele>
        <time>2022-06-30T06:04:58Z</time>
      </trkpt>
      <trkpt lat="47.18581" lon="3.92498">
        <ele>436</ele>
        <time>2022-06-30T06:00:30Z</time>
      </trkpt>
      <trkpt lat="47.18533" lon="3.92295">
        <ele>449</ele>
        <time>2022-06-30T05:57:15Z</time>
      </trkpt>
      <trkpt lat="47.18505" lon="3.92106">
        <ele>446</ele>
        <time>2022-06-30T05:54:20Z</time>
      </trkpt>
      <trkpt lat="47.18527" lon="3.91907">
        <ele>465</ele>
        <time>2022-06-30T05:51:17Z</time>
      </trkpt>
      <trkpt lat="47.1856" lon="3.91769">
        <ele>480</ele>
        <time>2022-06-30T05:49:05Z</time>
      </trkpt>
      <trkpt lat="47.18554" lon="3.91712">
        <ele>483</ele>
        <time>2022-06-30T05:48:12Z</time>
      </trkpt>
      <trkpt lat="47.1848" lon="3.91646">
        <ele>487</ele>
        <time>2022-06-30T05:46:17Z</time>
      </trkpt>
      <trkpt lat="47.18441" lon="3.91596">
        <ele>486</ele>
        <time>2022-06-30T05:45:08Z</time>
      </trkpt>
      <trkpt lat="47.18372" lon="3.91362">
        <ele>494</ele>
        <time>2022-06-30T05:41:16Z</time>
      </trkpt>
      <trkpt lat="47.1838" lon="3.91218">
        <ele>492</ele>
        <time>2022-06-30T05:39:05Z</time>
      </trkpt>
      <trkpt lat="47.18377" lon="3.91174">
        <ele>492</ele>
        <time>2022-06-30T05:38:25Z</time>
      </trkpt>
      <trkpt lat="47.1823" lon="3.90929">
        <ele>497</ele>
        <time>2022-06-30T05:33:29Z</time>
      </trkpt>
      <trkpt lat="47.18165" lon="3.90887">
        <ele>495</ele>
        <time>2022-06-30T05:31:54Z</time>
      </trkpt>
      <trkpt lat="47.1813" lon="3.90834">
        <ele>491</ele>
        <time>2022-06-30T05:30:47Z</time>
      </trkpt>
      <trkpt lat="47.18082" lon="3.90647">
        <ele>490</ele>
        <time>2022-06-30T05:27:46Z</time>
      </trkpt>
      <trkpt lat="47.1802" lon="3.90618">
        <ele>478</ele>
        <time>2022-06-30T05:26:19Z</time>
      </trkpt>
      <trkpt lat="47.17955" lon="3.905">
        <ele>476</ele>
        <time>2022-06-30T05:24:01Z</time>
      </trkpt>
      <trkpt lat="47.17853" lon="3.90477">
        <ele>470</ele>
        <time>2022-06-30T05:21:43Z</time>
      </trkpt>
      <trkpt lat="47.17804" lon="3.90423">
        <ele>472</ele>
        <time>2022-06-30T05:20:22Z</time>
      </trkpt>
      <trkpt lat="47.1776" lon="3.90397">
        <ele>470</ele>
        <time>2022-06-30T05:19:18Z</time>
      </trkpt>
      <trkpt lat="47.17739" lon="3.9036">
        <ele>469</ele>
        <time>2022-06-30T05:18:35Z</time>
      </trkpt>
      <trkpt lat="47.17727" lon="3.90296">
        <ele>470</ele>
        <time>2022-06-30T05:17:35Z</time>
      </trkpt>
      <trkpt lat="47.1771" lon="3.9027">
        <ele>469</ele>
        <time>2022-06-30T05:17:02Z</time>
      </trkpt>
      <trkpt lat="47.17656" lon="3.90257">
        <ele>466</ele>
        <time>2022-06-30T05:15:49Z</time>
      </trkpt>
      <trkpt lat="47.17592" lon="3.90158">
        <ele>466</ele>
        <time>2022-06-30T05:13:45Z</time>
      </trkpt>
      <trkpt lat="47.17335" lon="3.90082">
        <ele>446</ele>
        <time>2022-06-30T05:07:55Z</time>
      </trkpt>
      <trkpt lat="47.17302" lon="3.90037">
        <ele>452</ele>
        <time>2022-06-30T05:06:55Z</time>
      </trkpt>
      <trkpt lat="47.17262" lon="3.89914">
        <ele>453</ele>
        <time>2022-06-30T05:04:51Z</time>
      </trkpt>
      <trkpt lat="47.17212" lon="3.89849">
        <ele>454</ele>
        <time>2022-06-30T05:03:22Z</time>
      </trkpt>
      <trkpt lat="47.1711" lon="3.89797">
        <ele>457</ele>
        <time>2022-06-30T05:00:58Z</time>
      </trkpt>
      <trkpt lat="47.16989" lon="3.8978">
        <ele>451</ele>
        <time>2022-06-30T04:58:16Z</time>
      </trkpt>
      <trkpt lat="47.16876" lon="3.89833">
        <ele>452</ele>
        <time>2022-06-30T04:55:38Z</time>
      </trkpt>
      <trkpt lat="47.1682" lon="3.89833">
        <ele>452</ele>
        <time>2022-06-30T04:54:23Z</time>
      </trkpt>
      <trkpt lat="47.16793" lon="3.89807">
        <ele>453</ele>
        <time>2022-06-30T04:53:40Z</time>
      </trkpt>
      <trkpt lat="47.16768" lon="3.8973">
        <ele>451</ele>
        <time>2022-06-30T04:52:22Z</time>
      </trkpt>
      <trkpt lat="47.16584" lon="3.8956">
        <ele>443</ele>
        <time>2022-06-30T04:47:33Z</time>
      </trkpt>
      <trkpt lat="47.16521" lon="3.89253">
        <ele>445</ele>
        <time>2022-06-30T04:42:42Z</time>
      </trkpt>
      <trkpt lat="47.16412" lon="3.89162">
        <ele>432</ele>
        <time>2022-06-30T04:39:54Z</time>
      </trkpt>
      <trkpt lat="47.16344" lon="3.89187">
        <ele>423</ele>
        <time>2022-06-30T04:38:21Z</time>
      </trkpt>
      <trkpt lat="47.16233" lon="3.8926">
        <ele>394</ele>
        <time>2022-06-30T04:35:39Z</time>
      </trkpt>
      <trkpt lat="47.16177" lon="3.89346">
        <ele>380</ele>
        <time>2022-06-30T04:33:50Z</time>
      </trkpt>
      <trkpt lat="47.16137" lon="3.89369">
        <ele>369</ele>
        <time>2022-06-30T04:32:53Z</time>
      </trkpt>
      <trkpt lat="47.16036" lon="3.89352">
        <ele>355</ele>
        <time>2022-06-30T04:30:38Z</time>
      </trkpt>
      <trkpt lat="47.16012" lon="3.89325">
        <ele>352</ele>
        <time>2022-06-30T04:29:57Z</time>
      </trkpt>
      <trkpt lat="47.15928" lon="3.89346">
        <ele>341</ele>
        <time>2022-06-30T04:28:03Z</time>
      </trkpt>
      <trkpt lat="47.15871" lon="3.8934">
        <ele>336</ele>
        <time>2022-06-30T04:26:47Z</time>
      </trkpt>
      <trkpt lat="47.15837" lon="3.89315">
        <ele>332</ele>
        <time>2022-06-30T04:25:57Z</time>
      </trkpt>
      <trkpt lat="47.15765" lon="3.89308">
        <ele>325</ele>
        <time>2022-06-30T04:24:20Z</time>
      </trkpt>
      <trkpt lat="47.15797" lon="3.89438">
        <ele>326</ele>
        <time>2022-06-30T04:22:15Z</time>
      </trkpt>
      <trkpt lat="47.15882" lon="3.89552">
        <ele>324</ele>
        <time>2022-06-30T04:19:41Z</time>
      </trkpt>
      <trkpt lat="47.15919" lon="3.8983">
        <ele>325</ele>
        <time>2022-06-30T04:15:24Z</time>
      </trkpt>
      <trkpt lat="47.15886" lon="3.89922">
        <ele>326</ele>
        <time>2022-06-30T04:13:50Z</time>
      </trkpt>
      <trkpt lat="47.15814" lon="3.89975">
        <ele>327</ele>
        <time>2022-06-30T04:12:02Z</time>
      </trkpt>
      <trkpt lat="47.15786" lon="3.90027">
        <ele>328</ele>
        <time>2022-06-30T04:11:02Z</time>
      </trkpt>
      <trkpt lat="47.15793" lon="3.90131">
        <ele>331</ele>
        <time>2022-06-30T04:09:27Z</time>
      </trkpt>
      <trkpt lat="47.15906" lon="3.90285">
        <ele>338</ele>
        <time>2022-06-30T04:06:02Z</time>
      </trkpt>
      <trkpt lat="47.15911" lon="3.90332">
        <ele>332</ele>
        <time>2022-06-30T04:05:19Z</time>
      </trkpt>
      <trkpt lat="47.15829" lon="3.9045">
        <ele>330</ele>
        <time>2022-06-30T04:02:46Z</time>
      </trkpt>
      <trkpt lat="47.15782" lon="3.90428">
        <ele>334</ele>
        <time>2022-06-30T04:01:40Z</time>
      </trkpt>
      <trkpt lat="47.15756" lon="3.90395">
        <ele>334</ele>
        <time>2022-06-30T04:00:54Z</time>
      </trkpt>
      <trkpt lat="47.15632" lon="3.9033">
        <ele>336</ele>
        <time>2022-06-30T03:57:58Z</time>
      </trkpt>
      <trkpt lat="47.15292" lon="3.90022">
        <ele>330</ele>
        <time>2022-06-30T03:49:05Z</time>
      </trkpt>
      <trkpt lat="47.15231" lon="3.89993">
        <ele>328</ele>
        <time>2022-06-30T03:47:40Z</time>
      </trkpt>
      <trkpt lat="47.15158" lon="3.90013">
        <ele>329</ele>
        <time>2022-06-30T03:46:01Z</time>
      </trkpt>
      <trkpt lat="47.15056" lon="3.90121">
        <ele>332</ele>
        <time>2022-06-30T03:43:13Z</time>
      </trkpt>
      <trkpt lat="47.14991" lon="3.9015">
        <ele>331</ele>
        <time>2022-06-30T03:41:42Z</time>
      </trkpt>
      <trkpt lat="47.14928" lon="3.90248">
        <ele>333</ele>
        <time>2022-06-30T03:39:40Z</time>
      </trkpt>
      <trkpt lat="47.14887" lon="3.90378">
        <ele>340</ele>
        <time>2022-06-30T03:37:30Z</time>
      </trkpt>
      <trkpt lat="47.14724" lon="3.90435">
        <ele>340</ele>
        <time>2022-06-30T03:33:46Z</time>
      </trkpt>
      <trkpt lat="47.14699" lon="3.90474">
        <ele>341</ele>
        <time>2022-06-30T03:32:58Z</time>
      </trkpt>
      <trkpt lat="47.14703" lon="3.90528">
        <ele>343</ele>
        <time>2022-06-30T03:32:08Z</time>
      </trkpt>
      <trkpt lat="47.1476" lon="3.90608">
        <ele>350</ele>
        <time>2022-06-30T03:30:23Z</time>
      </trkpt>
      <trkpt lat="47.14777" lon="3.90647">
        <ele>353</ele>
        <time>2022-06-30T03:29:41Z</time>
      </trkpt>
      <trkpt lat="47.14781" lon="3.90704">
        <ele>356</ele>
        <time>2022-06-30T03:28:49Z</time>
      </trkpt>
      <trkpt lat="47.14762" lon="3.90777">
        <ele>357</ele>
        <time>2022-06-30T03:27:38Z</time>
      </trkpt>
      <trkpt lat="47.14667" lon="3.90865">
        <ele>351</ele>
        <time>2022-06-30T03:25:08Z</time>
      </trkpt>
      <trkpt lat="47.14622" lon="3.90911">
        <ele>349</ele>
        <time>2022-06-30T03:23:55Z</time>
      </trkpt>
      <trkpt lat="47.14552" lon="3.91049">
        <ele>349</ele>
        <time>2022-06-30T03:21:19Z</time>
      </trkpt>
      <trkpt lat="47.14477" lon="3.91167">
        <ele>352</ele>
        <time>2022-06-30T03:18:52Z</time>
      </trkpt>
      <trkpt lat="47.14438" lon="3.91192">
        <ele>351</ele>
        <time>2022-06-30T03:17:56Z</time>
      </trkpt>
      <trkpt lat="47.14418" lon="3.91259">
        <ele>354</ele>
        <time>2022-06-30T03:16:49Z</time>
      </trkpt>
      <trkpt lat="47.14389" lon="3.91312">
        <ele>347</ele>
        <time>2022-06-30T03:15:47Z</time>
      </trkpt>
      <trkpt lat="47.14389" lon="3.91344">
        <ele>346</ele>
        <time>2022-06-30T03:15:18Z</time>
      </trkpt>
      <trkpt lat="47.14421" lon="3.91381">
        <ele>347</ele>
        <time>2022-06-30T03:14:24Z</time>
      </trkpt>
      <trkpt lat="47.14431" lon="3.91416">
        <ele>347</ele>
        <time>2022-06-30T03:13:50Z</time>
      </trkpt>
      <trkpt lat="47.14416" lon="3.91542">
        <ele>346</ele>
        <time>2022-06-30T03:11:53Z</time>
      </trkpt>
      <trkpt lat="47.14454" lon="3.91672">
        <ele>347</ele>
        <time>2022-06-30T03:09:45Z</time>
      </trkpt>
      <trkpt lat="47.14453" lon="3.91715">
        <ele>346</ele>
        <time>2022-06-30T03:09:06Z</time>
      </trkpt>
      <trkpt lat="47.14438" lon="3.91744">
        <ele>344</ele>
        <time>2022-06-30T03:08:33Z</time>
      </trkpt>
      <trkpt lat="47.14396" lon="3.91802">
        <ele>341</ele>
        <time>2022-06-30T03:07:16Z</time>
      </trkpt>
      <trkpt lat="47.14392" lon="3.91847">
        <ele>341</ele>
        <time>2022-06-30T03:06:35Z</time>
      </trkpt>
      <trkpt lat="47.14408" lon="3.91933">
        <ele>345</ele>
        <time>2022-06-30T03:05:14Z</time>
      </trkpt>
      <trkpt lat="47.144" lon="3.92082">
        <ele>350</ele>
        <time>2022-06-30T03:02:58Z</time>
      </trkpt>
      <trkpt lat="47.14383" lon="3.92163">
        <ele>343</ele>
        <time>2022-06-30T03:01:41Z</time>
      </trkpt>
      <trkpt lat="47.14407" lon="3.92277">
        <ele>339</ele>
        <time>2022-06-30T02:59:53Z</time>
      </trkpt>
      <trkpt lat="47.14393" lon="3.9231">
        <ele>337</ele>
        <time>2022-06-30T02:59:18Z</time>
      </trkpt>
      <trkpt lat="47.14359" lon="3.9237">
        <ele>334</ele>
        <time>2022-06-30T02:58:07Z</time>
      </trkpt>
      <trkpt lat="47.14322" lon="3.92659">
        <ele>330</ele>
        <time>2022-06-30T02:53:40Z</time>
      </trkpt>
      <trkpt lat="47.14319" lon="3.92805">
        <ele>332</ele>
        <time>2022-06-30T02:51:27Z</time>
      </trkpt>
      <trkpt lat="47.14312" lon="3.92819">
        <ele>330</ele>
        <time>2022-06-30T02:51:12Z</time>
      </trkpt>
      <trkpt lat="47.14203" lon="3.92865">
        <ele>329</ele>
        <time>2022-06-30T02:48:40Z</time>
      </trkpt>
      <trkpt lat="47.14139" lon="3.92818">
        <ele>331</ele>
        <time>2022-06-30T02:47:05Z</time>
      </trkpt>
      <trkpt lat="47.14058" lon="3.9285">
        <ele>341</ele>
        <time>2022-06-30T02:45:13Z</time>
      </trkpt>
      <trkpt lat="47.14024" lon="3.92825">
        <ele>344</ele>
        <time>2022-06-30T02:44:22Z</time>
      </trkpt>
      <trkpt lat="47.14006" lon="3.92772">
        <ele>345</ele>
        <time>2022-06-30T02:43:28Z</time>
      </trkpt>
      <trkpt lat="47.14005" lon="3.92669">
        <ele>340</ele>
        <time>2022-06-30T02:41:55Z</time>
      </trkpt>
      <trkpt lat="47.1398" lon="3.92582">
        <ele>344</ele>
        <time>2022-06-30T02:40:29Z</time>
      </trkpt>
      <trkpt lat="47.13976" lon="3.92573">
        <ele>345</ele>
        <time>2022-06-30T02:40:19Z</time>
      </trkpt>
      <trkpt lat="47.13957" lon="3.92576">
        <ele>350</ele>
        <time>2022-06-30T02:39:54Z</time>
      </trkpt>
      <trkpt lat="47.13923" lon="3.92487">
        <ele>356</ele>
        <time>2022-06-30T02:38:21Z</time>
      </trkpt>
      <trkpt lat="47.13908" lon="3.92419">
        <ele>357</ele>
        <time>2022-06-30T02:37:16Z</time>
      </trkpt>
      <trkpt lat="47.13867" lon="3.92391">
        <ele>360</ele>
        <time>2022-06-30T02:36:16Z</time>
      </trkpt>
      <trkpt lat="47.13864" lon="3.92349">
        <ele>357</ele>
        <time>2022-06-30T02:35:38Z</time>
      </trkpt>
      <trkpt lat="47.13841" lon="3.92305">
        <ele>354</ele>
        <time>2022-06-30T02:34:47Z</time>
      </trkpt>
      <trkpt lat="47.13775" lon="3.9234">
        <ele>355</ele>
        <time>2022-06-30T02:33:14Z</time>
      </trkpt>
      <trkpt lat="47.137" lon="3.92427">
        <ele>360</ele>
        <time>2022-06-30T02:31:06Z</time>
      </trkpt>
      <trkpt lat="47.13661" lon="3.92459">
        <ele>359</ele>
        <time>2022-06-30T02:30:07Z</time>
      </trkpt>
      <trkpt lat="47.13628" lon="3.92504">
        <ele>360</ele>
        <time>2022-06-30T02:29:06Z</time>
      </trkpt>
      <trkpt lat="47.13605" lon="3.92507">
        <ele>359</ele>
        <time>2022-06-30T02:28:36Z</time>
      </trkpt>
      <trkpt lat="47.13527" lon="3.92487">
        <ele>358</ele>
        <time>2022-06-30T02:26:50Z</time>
      </trkpt>
      <trkpt lat="47.13492" lon="3.92426">
        <ele>360</ele>
        <time>2022-06-30T02:25:38Z</time>
      </trkpt>
      <trkpt lat="47.13467" lon="3.92299">
        <ele>364</ele>
        <time>2022-06-30T02:23:38Z</time>
      </trkpt>
      <trkpt lat="47.13417" lon="3.92233">
        <ele>369</ele>
        <time>2022-06-30T02:22:08Z</time>
      </trkpt>
      <trkpt lat="47.13388" lon="3.92161">
        <ele>365</ele>
        <time>2022-06-30T02:20:52Z</time>
      </trkpt>
      <trkpt lat="47.1349" lon="3.92066">
        <ele>368</ele>
        <time>2022-06-30T02:18:11Z</time>
      </trkpt>
      <trkpt lat="47.13584" lon="3.92059">
        <ele>365</ele>
        <time>2022-06-30T02:16:05Z</time>
      </trkpt>
      <trkpt lat="47.1371" lon="3.91925">
        <ele>354</ele>
        <time>2022-06-30T02:12:38Z</time>
      </trkpt>
      <trkpt lat="47.13748" lon="3.91857">
        <ele>353</ele>
        <time>2022-06-30T02:11:18Z</time>
      </trkpt>
      <trkpt lat="47.13793" lon="3.91802">
        <ele>346</ele>
        <time>2022-06-30T02:10:00Z</time>
      </trkpt>
      <trkpt lat="47.13838" lon="3.91698">
        <ele>345</ele>
        <time>2022-06-30T02:08:08Z</time>
      </trkpt>
      <trkpt lat="47.13888" lon="3.91668">
        <ele>337</ele>
        <time>2022-06-30T02:06:56Z</time>
      </trkpt>
      <trkpt lat="47.13919" lon="3.91622">
        <ele>332</ele>
        <time>2022-06-30T02:05:57Z</time>
      </trkpt>
      <trkpt lat="47.13938" lon="3.91559">
        <ele>332</ele>
        <time>2022-06-30T02:04:54Z</time>
      </trkpt>
      <trkpt lat="47.13925" lon="3.91436">
        <ele>330</ele>
        <time>2022-06-30T02:03:01Z</time>
      </trkpt>
      <trkpt lat="47.13886" lon="3.91362">
        <ele>332</ele>
        <time>2022-06-30T02:01:36Z</time>
      </trkpt>
      <trkpt lat="47.13875" lon="3.91275">
        <ele>333</ele>
        <time>2022-06-30T02:00:16Z</time>
      </trkpt>
      <trkpt lat="47.13879" lon="3.91094">
        <ele>329</ele>
        <time>2022-06-30T01:57:32Z</time>
      </trkpt>
      <trkpt lat="47.13825" lon="3.91026">
        <ele>333</ele>
        <time>2022-06-30T01:55:57Z</time>
      </trkpt>
      <trkpt lat="47.13714" lon="3.90985">
        <ele>347</ele>
        <time>2022-06-30T01:53:24Z</time>
      </trkpt>
      <trkpt lat="47.13514" lon="3.91049">
        <ele>341</ele>
        <time>2022-06-30T01:48:51Z</time>
      </trkpt>
      <trkpt lat="47.13435" lon="3.91058">
        <ele>333</ele>
        <time>2022-06-30T01:47:05Z</time>
      </trkpt>
      <trkpt lat="47.13377" lon="3.91089">
        <ele>331</ele>
        <time>2022-06-30T01:45:43Z</time>
      </trkpt>
      <trkpt lat="47.13284" lon="3.9115">
        <ele>330</ele>
        <time>2022-06-30T01:43:27Z</time>
      </trkpt>
      <trkpt lat="47.13209" lon="3.91228">
        <ele>328</ele>
        <time>2022-06-30T01:41:24Z</time>
      </trkpt>
      <trkpt lat="47.1316" lon="3.91385">
        <ele>327</ele>
        <time>2022-06-30T01:38:48Z</time>
      </trkpt>
      <trkpt lat="47.13087" lon="3.91498">
        <ele>330</ele>
        <time>2022-06-30T01:36:26Z</time>
      </trkpt>
      <trkpt lat="47.13074" lon="3.91541">
        <ele>331</ele>
        <time>2022-06-30T01:35:43Z</time>
      </trkpt>
      <trkpt lat="47.13083" lon="3.91587">
        <ele>333</ele>
        <time>2022-06-30T01:35:00Z</time>
      </trkpt>
      <trkpt lat="47.13109" lon="3.91638">
        <ele>338</ele>
        <time>2022-06-30T01:34:02Z</time>
      </trkpt>
      <trkpt lat="47.13166" lon="3.91673">
        <ele>345</ele>
        <time>2022-06-30T01:32:40Z</time>
      </trkpt>
      <trkpt lat="47.13205" lon="3.91715">
        <ele>349</ele>
        <time>2022-06-30T01:31:35Z</time>
      </trkpt>
      <trkpt lat="47.13264" lon="3.91894">
        <ele>354</ele>
        <time>2022-06-30T01:28:34Z</time>
      </trkpt>
      <trkpt lat="47.13221" lon="3.91898">
        <ele>348</ele>
        <time>2022-06-30T01:27:37Z</time>
      </trkpt>
      <trkpt lat="47.13197" lon="3.91916">
        <ele>345</ele>
        <time>2022-06-30T01:27:01Z</time>
      </trkpt>
      <trkpt lat="47.13181" lon="3.91948">
        <ele>345</ele>
        <time>2022-06-30T01:26:25Z</time>
      </trkpt>
      <trkpt lat="47.13123" lon="3.91972">
        <ele>346</ele>
        <time>2022-06-30T01:25:05Z</time>
      </trkpt>
      <trkpt lat="47.13056" lon="3.91974">
        <ele>348</ele>
        <time>2022-06-30T01:23:35Z</time>
      </trkpt>
      <trkpt lat="47.12922" lon="3.91945">
        <ele>343</ele>
        <time>2022-06-30T01:20:34Z</time>
      </trkpt>
      <trkpt lat="47.12855" lon="3.91955">
        <ele>344</ele>
        <time>2022-06-30T01:19:05Z</time>
      </trkpt>
      <trkpt lat="47.12817" lon="3.92008">
        <ele>350</ele>
        <time>2022-06-30T01:17:55Z</time>
      </trkpt>
      <trkpt lat="47.12764" lon="3.92051">
        <ele>348</ele>
        <time>2022-06-30T01:16:34Z</time>
      </trkpt>
      <trkpt lat="47.12736" lon="3.92222">
        <ele>352</ele>
        <time>2022-06-30T01:13:54Z</time>
      </trkpt>
      <trkpt lat="47.12702" lon="3.92379">
        <ele>348</ele>
        <time>2022-06-30T01:11:25Z</time>
      </trkpt>
      <trkpt lat="47.12656" lon="3.92544">
        <ele>346</ele>
        <time>2022-06-30T01:08:43Z</time>
      </trkpt>
      <trkpt lat="47.12583" lon="3.92681">
        <ele>339</ele>
        <time>2022-06-30T01:06:05Z</time>
      </trkpt>
      <trkpt lat="47.12546" lon="3.92709">
        <ele>335</ele>
        <time>2022-06-30T01:05:09Z</time>
      </trkpt>
      <trkpt lat="47.12539" lon="3.92763">
        <ele>336</ele>
        <time>2022-06-30T01:04:19Z</time>
      </trkpt>
      <trkpt lat="47.12549" lon="3.92797">
        <ele>336</ele>
        <time>2022-06-30T01:03:46Z</time>
      </trkpt>
      <trkpt lat="47.12549" lon="3.9282">
        <ele>335</ele>
        <time>2022-06-30T01:03:25Z</time>
      </trkpt>
      <trkpt lat="47.12507" lon="3.92875">
        <ele>335</ele>
        <time>2022-06-30T01:02:10Z</time>
      </trkpt>
      <trkpt lat="47.12483" lon="3.92889">
        <ele>335</ele>
        <time>2022-06-30T01:01:35Z</time>
      </trkpt>
      <trkpt lat="47.12475" lon="3.92919">
        <ele>335</ele>
        <time>2022-06-30T01:01:06Z</time>
      </trkpt>
      <trkpt lat="47.12454" lon="3.92973">
        <ele>338</ele>
        <time>2022-06-30T01:00:09Z</time>
      </trkpt>
      <trkpt lat="47.12479" lon="3.93007">
        <ele>341</ele>
        <time>2022-06-30T00:59:24Z</time>
      </trkpt>
      <trkpt lat="47.12509" lon="3.93169">
        <ele>378</ele>
        <time>2022-06-30T00:56:52Z</time>
      </trkpt>
      <trkpt lat="47.12493" lon="3.93281">
        <ele>397</ele>
        <time>2022-06-30T00:55:08Z</time>
      </trkpt>
      <trkpt lat="47.12505" lon="3.93343">
        <ele>404</ele>
        <time>2022-06-30T00:54:09Z</time>
      </trkpt>
      <trkpt lat="47.12554" lon="3.9344">
        <ele>413</ele>
        <time>2022-06-30T00:52:19Z</time>
      </trkpt>
      <trkpt lat="47.12642" lon="3.93543">
        <ele>432</ele>
        <time>2022-06-30T00:49:49Z</time>
      </trkpt>
      <trkpt lat="47.12846" lon="3.93665">
        <ele>480</ele>
        <time>2022-06-30T00:44:55Z</time>
      </trkpt>
      <trkpt lat="47.12884" lon="3.93739">
        <ele>490</ele>
        <time>2022-06-30T00:43:31Z</time>
      </trkpt>
      <trkpt lat="47.12916" lon="3.93924">
        <ele>496</ele>
        <time>2022-06-30T00:40:38Z</time>
      </trkpt>
      <trkpt lat="47.1289" lon="3.93978">
        <ele>494</ele>
        <time>2022-06-30T00:39:38Z</time>
      </trkpt>
      <trkpt lat="47.12789" lon="3.94081">
        <ele>487</ele>
        <time>2022-06-30T00:36:54Z</time>
      </trkpt>
      <trkpt lat="47.12728" lon="3.94163">
        <ele>479</ele>
        <time>2022-06-30T00:35:04Z</time>
      </trkpt>
      <trkpt lat="47.12721" lon="3.94194">
        <ele>478</ele>
        <time>2022-06-30T00:34:34Z</time>
      </trkpt>
      <trkpt lat="47.12685" lon="3.94171">
        <ele>474</ele>
        <time>2022-06-30T00:33:41Z</time>
      </trkpt>
      <trkpt lat="47.12666" lon="3.94152">
        <ele>470</ele>
        <time>2022-06-30T00:33:11Z</time>
      </trkpt>
      <trkpt lat="47.12627" lon="3.94146">
        <ele>473</ele>
        <time>2022-06-30T00:32:18Z</time>
      </trkpt>
      <trkpt lat="47.12597" lon="3.94127">
        <ele>473</ele>
        <time>2022-06-30T00:31:35Z</time>
      </trkpt>
      <trkpt lat="47.12566" lon="3.94163">
        <ele>478</ele>
        <time>2022-06-30T00:30:42Z</time>
      </trkpt>
      <trkpt lat="47.12543" lon="3.943">
        <ele>490</ele>
        <time>2022-06-30T00:28:34Z</time>
      </trkpt>
      <trkpt lat="47.12545" lon="3.94393">
        <ele>499</ele>
        <time>2022-06-30T00:27:10Z</time>
      </trkpt>
      <trkpt lat="47.12512" lon="3.94421">
        <ele>507</ele>
        <time>2022-06-30T00:26:19Z</time>
      </trkpt>
      <trkpt lat="47.12391" lon="3.94564">
        <ele>521</ele>
        <time>2022-06-30T00:22:51Z</time>
      </trkpt>
      <trkpt lat="47.12266" lon="3.94785">
        <ele>525</ele>
        <time>2022-06-30T00:18:31Z</time>
      </trkpt>
      <trkpt lat="47.12217" lon="3.9485">
        <ele>526</ele>
        <time>2022-06-30T00:17:02Z</time>
      </trkpt>
      <trkpt lat="47.12136" lon="3.94937">
        <ele>529</ele>
        <time>2022-06-30T00:14:49Z</time>
      </trkpt>
      <trkpt lat="47.11987" lon="3.95072">
        <ele>533</ele>
        <time>2022-06-30T00:10:55Z</time>
      </trkpt>
      <trkpt lat="47.12201" lon="3.95104">
        <ele>513</ele>
        <time>2022-06-30T00:06:08Z</time>
      </trkpt>
      <trkpt lat="47.12138" lon="3.95168">
        <ele>514</ele>
        <time>2022-06-30T00:04:26Z</time>
      </trkpt>
      <trkpt lat="47.1208" lon="3.95275">
        <ele>521</ele>
        <time>2022-06-30T00:02:22Z</time>
      </trkpt>
      <trkpt lat="47.12054" lon="3.95303">
        <ele>524</ele>
        <time>2022-06-30T00:01:39Z</time>
      </trkpt>
      <trkpt lat="47.12012" lon="3.95318">
        <ele>529</ele>
        <time>2022-06-30T00:00:41Z</time>
      </trkpt>
      <trkpt lat="47.11935" lon="3.95388">
        <ele>528</ele>
        <time>2022-06-29T23:58:40Z</time>
      </trkpt>
      <trkpt lat="47.11861" lon="3.95496">
        <ele>524</ele>
        <time>2022-06-29T23:56:21Z</time>
      </trkpt>
      <trkpt lat="47.11804" lon="3.95636">
        <ele>523</ele>
        <time>2022-06-29T23:53:53Z</time>
      </trkpt>
      <trkpt lat="47.11764" lon="3.95813">
        <ele>535</ele>
        <time>2022-06-29T23:51:03Z</time>
      </trkpt>
      <trkpt lat="47.11742" lon="3.95889">
        <ele>543</ele>
        <time>2022-06-29T23:49:48Z</time>
      </trkpt>
      <trkpt lat="47.11696" lon="3.95986">
        <ele>550</ele>
        <time>2022-06-29T23:48:01Z</time>
      </trkpt>
      <trkpt lat="47.11633" lon="3.96079">
        <ele>553</ele>
        <time>2022-06-29T23:46:02Z</time>
      </trkpt>
      <trkpt lat="47.1159" lon="3.96158">
        <ele>554</ele>
        <time>2022-06-29T23:44:30Z</time>
      </trkpt>
      <trkpt lat="47.11568" lon="3.96202">
        <ele>556</ele>
        <time>2022-06-29T23:43:40Z</time>
      </trkpt>
      <trkpt lat="47.11562" lon="3.96235">
        <ele>556</ele>
        <time>2022-06-29T23:43:09Z</time>
      </trkpt>
      <trkpt lat="47.11563" lon="3.96305">
        <ele>558</ele>
        <time>2022-06-29T23:42:06Z</time>
      </trkpt>
      <trkpt lat="47.1158" lon="3.96377">
        <ele>557</ele>
        <time>2022-06-29T23:40:57Z</time>
      </trkpt>
      <trkpt lat="47.11619" lon="3.96469">
        <ele>553</ele>
        <time>2022-06-29T23:39:18Z</time>
      </trkpt>
      <trkpt lat="47.11726" lon="3.96629">
        <ele>555</ele>
        <time>2022-06-29T23:35:54Z</time>
      </trkpt>
      <trkpt lat="47.11741" lon="3.96713">
        <ele>555</ele>
        <time>2022-06-29T23:34:36Z</time>
      </trkpt>
      <trkpt lat="47.11744" lon="3.96771">
        <ele>554</ele>
        <time>2022-06-29T23:33:43Z</time>
      </trkpt>
      <trkpt lat="47.11739" lon="3.9682">
        <ele>552</ele>
        <time>2022-06-29T23:32:58Z</time>
      </trkpt>
      <trkpt lat="47.11738" lon="3.96885">
        <ele>551</ele>
        <time>2022-06-29T23:31:59Z</time>
      </trkpt>
      <trkpt lat="47.11728" lon="3.96983">
        <ele>552</ele>
        <time>2022-06-29T23:30:29Z</time>
      </trkpt>
      <trkpt lat="47.11732" lon="3.97007">
        <ele>550</ele>
        <time>2022-06-29T23:30:06Z</time>
      </trkpt>
      <trkpt lat="47.11757" lon="3.9704">
        <ele>546</ele>
        <time>2022-06-29T23:29:21Z</time>
      </trkpt>
      <trkpt lat="47.11792" lon="3.97104">
        <ele>539</ele>
        <time>2022-06-29T23:28:07Z</time>
      </trkpt>
      <trkpt lat="47.11888" lon="3.97157">
        <ele>532</ele>
        <time>2022-06-29T23:25:50Z</time>
      </trkpt>
      <trkpt lat="47.11929" lon="3.97219">
        <ele>534</ele>
        <time>2022-06-29T23:24:31Z</time>
      </trkpt>
      <trkpt lat="47.11965" lon="3.97259">
        <ele>535</ele>
        <time>2022-06-29T23:23:31Z</time>
      </trkpt>
      <trkpt lat="47.11998" lon="3.97309">
        <ele>535</ele>
        <time>2022-06-29T23:22:28Z</time>
      </trkpt>
      <trkpt lat="47.12068" lon="3.9739">
        <ele>532</ele>
        <time>2022-06-29T23:20:29Z</time>
      </trkpt>
      <trkpt lat="47.12159" lon="3.976">
        <ele>511</ele>
        <time>2022-06-29T23:16:43Z</time>
      </trkpt>
      <trkpt lat="47.12147" lon="3.97617">
        <ele>507</ele>
        <time>2022-06-29T23:16:21Z</time>
      </trkpt>
      <trkpt lat="47.12088" lon="3.97611">
        <ele>506</ele>
        <time>2022-06-29T23:15:02Z</time>
      </trkpt>
      <trkpt lat="47.12021" lon="3.97566">
        <ele>505</ele>
        <time>2022-06-29T23:13:24Z</time>
      </trkpt>
      <trkpt lat="47.11976" lon="3.97553">
        <ele>501</ele>
        <time>2022-06-29T23:12:22Z</time>
      </trkpt>
      <trkpt lat="47.11927" lon="3.97556">
        <ele>497</ele>
        <time>2022-06-29T23:11:17Z</time>
      </trkpt>
      <trkpt lat="47.11885" lon="3.97567">
        <ele>498</ele>
        <time>2022-06-29T23:10:20Z</time>
      </trkpt>
      <trkpt lat="47.11878" lon="3.97599">
        <ele>498</ele>
        <time>2022-06-29T23:09:49Z</time>
      </trkpt>
      <trkpt lat="47.1189" lon="3.97715">
        <ele>497</ele>
        <time>2022-06-29T23:08:03Z</time>
      </trkpt>
      <trkpt lat="47.11881" lon="3.97734">
        <ele>499</ele>
        <time>2022-06-29T23:07:42Z</time>
      </trkpt>
      <trkpt lat="47.11895" lon="3.97779">
        <ele>494</ele>
        <time>2022-06-29T23:06:57Z</time>
      </trkpt>
      <trkpt lat="47.11899" lon="3.97834">
        <ele>488</ele>
        <time>2022-06-29T23:06:07Z</time>
      </trkpt>
      <trkpt lat="47.11859" lon="3.98019">
        <ele>474</ele>
        <time>2022-06-29T23:03:10Z</time>
      </trkpt>
      <trkpt lat="47.11821" lon="3.98109">
        <ele>470</ele>
        <time>2022-06-29T23:01:34Z</time>
      </trkpt>
      <trkpt lat="47.11819" lon="3.98223">
        <ele>462</ele>
        <time>2022-06-29T22:59:51Z</time>
      </trkpt>
      <trkpt lat="47.11835" lon="3.98306">
        <ele>465</ele>
        <time>2022-06-29T22:58:32Z</time>
      </trkpt>
      <trkpt lat="47.11833" lon="3.98343">
        <ele>469</ele>
        <time>2022-06-29T22:57:59Z</time>
      </trkpt>
      <trkpt lat="47.11797" lon="3.98438">
        <ele>477</ele>
        <time>2022-06-29T22:56:20Z</time>
      </trkpt>
      <trkpt lat="47.11798" lon="3.98517">
        <ele>483</ele>
        <time>2022-06-29T22:55:08Z</time>
      </trkpt>
      <trkpt lat="47.11841" lon="3.98646">
        <ele>496</ele>
        <time>2022-06-29T22:52:58Z</time>
      </trkpt>
      <trkpt lat="47.11895" lon="3.98934">
        <ele>529</ele>
        <time>2022-06-29T22:48:26Z</time>
      </trkpt>
      <trkpt lat="47.11949" lon="3.99105">
        <ele>533</ele>
        <time>2022-06-29T22:45:35Z</time>
      </trkpt>
      <trkpt lat="47.11964" lon="3.99179">
        <ele>536</ele>
        <time>2022-06-29T22:44:25Z</time>
      </trkpt>
      <trkpt lat="47.12012" lon="3.99288">
        <ele>547</ele>
        <time>2022-06-29T22:42:27Z</time>
      </trkpt>
      <trkpt lat="47.12021" lon="3.99369">
        <ele>549</ele>
        <time>2022-06-29T22:41:13Z</time>
      </trkpt>
      <trkpt lat="47.12011" lon="3.99417">
        <ele>550</ele>
        <time>2022-06-29T22:40:27Z</time>
      </trkpt>
      <trkpt lat="47.11979" lon="3.99457">
        <ele>550</ele>
        <time>2022-06-29T22:39:31Z</time>
      </trkpt>
      <trkpt lat="47.11976" lon="3.99638">
        <ele>558</ele>
        <time>2022-06-29T22:36:47Z</time>
      </trkpt>
      <trkpt lat="47.12025" lon="3.99702">
        <ele>563</ele>
        <time>2022-06-29T22:35:19Z</time>
      </trkpt>
      <trkpt lat="47.12033" lon="3.99724">
        <ele>564</ele>
        <time>2022-06-29T22:34:57Z</time>
      </trkpt>
      <trkpt lat="47.12018" lon="3.99746">
        <ele>568</ele>
        <time>2022-06-29T22:34:28Z</time>
      </trkpt>
      <trkpt lat="47.11976" lon="3.99766">
        <ele>571</ele>
        <time>2022-06-29T22:33:29Z</time>
      </trkpt>
      <trkpt lat="47.12023" lon="3.99789">
        <ele>572</ele>
        <time>2022-06-29T22:32:23Z</time>
      </trkpt>
      <trkpt lat="47.1203" lon="3.99814">
        <ele>574</ele>
        <time>2022-06-29T22:31:59Z</time>
      </trkpt>
      <trkpt lat="47.11988" lon="3.99828">
        <ele>579</ele>
        <time>2022-06-29T22:31:01Z</time>
      </trkpt>
      <trkpt lat="47.11977" lon="3.99882">
        <ele>583</ele>
        <time>2022-06-29T22:30:10Z</time>
      </trkpt>
      <trkpt lat="47.11952" lon="3.99931">
        <ele>587</ele>
        <time>2022-06-29T22:29:14Z</time>
      </trkpt>
      <trkpt lat="47.11949" lon="3.99976">
        <ele>591</ele>
        <time>2022-06-29T22:28:33Z</time>
      </trkpt>
      <trkpt lat="47.11962" lon="4.00032">
        <ele>594</ele>
        <time>2022-06-29T22:27:40Z</time>
      </trkpt>
      <trkpt lat="47.11942" lon="4.00068">
        <ele>599</ele>
        <time>2022-06-29T22:26:57Z</time>
      </trkpt>
      <trkpt lat="47.11733" lon="4.00261">
        <ele>613</ele>
        <time>2022-06-29T22:21:28Z</time>
      </trkpt>
      <trkpt lat="47.1172" lon="4.00539">
        <ele>612</ele>
        <time>2022-06-29T22:17:15Z</time>
      </trkpt>
      <trkpt lat="47.11714" lon="4.00567">
        <ele>615</ele>
        <time>2022-06-29T22:16:48Z</time>
      </trkpt>
      <trkpt lat="47.11689" lon="4.00584">
        <ele>618</ele>
        <time>2022-06-29T22:16:12Z</time>
      </trkpt>
      <trkpt lat="47.11646" lon="4.00656">
        <ele>628</ele>
        <time>2022-06-29T22:14:45Z</time>
      </trkpt>
      <trkpt lat="47.11619" lon="4.00719">
        <ele>634</ele>
        <time>2022-06-29T22:13:37Z</time>
      </trkpt>
      <trkpt lat="47.11574" lon="4.00856">
        <ele>646</ele>
        <time>2022-06-29T22:11:19Z</time>
      </trkpt>
      <trkpt lat="47.11542" lon="4.0098">
        <ele>654</ele>
        <time>2022-06-29T22:09:18Z</time>
      </trkpt>
      <trkpt lat="47.11534" lon="4.01082">
        <ele>652</ele>
        <time>2022-06-29T22:07:45Z</time>
      </trkpt>
      <trkpt lat="47.11501" lon="4.01197">
        <ele>649</ele>
        <time>2022-06-29T22:05:52Z</time>
      </trkpt>
      <trkpt lat="47.11457" lon="4.013">
        <ele>646</ele>
        <time>2022-06-29T22:04:01Z</time>
      </trkpt>
      <trkpt lat="47.11367" lon="4.01398">
        <ele>640</ele>
        <time>2022-06-29T22:01:32Z</time>
      </trkpt>
      <trkpt lat="47.11366" lon="4.01472">
        <ele>635</ele>
        <time>2022-06-29T22:00:25Z</time>
      </trkpt>
      <trkpt lat="47.1134" lon="4.01543">
        <ele>624</ele>
        <time>2022-06-29T21:59:11Z</time>
      </trkpt>
      <trkpt lat="47.11306" lon="4.01573">
        <ele>619</ele>
        <time>2022-06-29T21:58:19Z</time>
      </trkpt>
      <trkpt lat="47.11269" lon="4.01697">
        <ele>617</ele>
        <time>2022-06-29T21:56:16Z</time>
      </trkpt>
      <trkpt lat="47.11227" lon="4.01767">
        <ele>618</ele>
        <time>2022-06-29T21:54:51Z</time>
      </trkpt>
      <trkpt lat="47.11212" lon="4.01819">
        <ele>614</ele>
        <time>2022-06-29T21:54:00Z</time>
      </trkpt>
      <trkpt lat="47.11191" lon="4.01985">
        <ele>613</ele>
        <time>2022-06-29T21:51:26Z</time>
      </trkpt>
      <trkpt lat="47.11154" lon="4.02002">
        <ele>612</ele>
        <time>2022-06-29T21:50:34Z</time>
      </trkpt>
      <trkpt lat="47.11223" lon="4.02186">
        <ele>613</ele>
        <time>2022-06-29T21:47:24Z</time>
      </trkpt>
      <trkpt lat="47.11344" lon="4.02386">
        <ele>615</ele>
        <time>2022-06-29T21:43:21Z</time>
      </trkpt>
      <trkpt lat="47.11343" lon="4.02431">
        <ele>615</ele>
        <time>2022-06-29T21:42:40Z</time>
      </trkpt>
      <trkpt lat="47.11287" lon="4.02506">
        <ele>616</ele>
        <time>2022-06-29T21:40:59Z</time>
      </trkpt>
      <trkpt lat="47.11272" lon="4.02617">
        <ele>613</ele>
        <time>2022-06-29T21:39:16Z</time>
      </trkpt>
      <trkpt lat="47.11294" lon="4.02742">
        <ele>603</ele>
        <time>2022-06-29T21:37:19Z</time>
      </trkpt>
      <trkpt lat="47.11259" lon="4.03001">
        <ele>598</ele>
        <time>2022-06-29T21:33:19Z</time>
      </trkpt>
      <trkpt lat="47.1126" lon="4.03202">
        <ele>584</ele>
        <time>2022-06-29T21:30:16Z</time>
      </trkpt>
      <trkpt lat="47.11244" lon="4.03275">
        <ele>579</ele>
        <time>2022-06-29T21:29:07Z</time>
      </trkpt>
      <trkpt lat="47.11252" lon="4.03316">
        <ele>576</ele>
        <time>2022-06-29T21:28:28Z</time>
      </trkpt>
      <trkpt lat="47.11341" lon="4.0358">
        <ele>575</ele>
        <time>2022-06-29T21:24:00Z</time>
      </trkpt>
      <trkpt lat="47.11311" lon="4.03792">
        <ele>587</ele>
        <time>2022-06-29T21:20:44Z</time>
      </trkpt>
      <trkpt lat="47.11193" lon="4.04194">
        <ele>611</ele>
        <time>2022-06-29T21:14:06Z</time>
      </trkpt>
      <trkpt lat="47.11246" lon="4.04177">
        <ele>621</ele>
        <time>2022-06-29T21:12:54Z</time>
      </trkpt>
      <trkpt lat="47.11263" lon="4.04166">
        <ele>624</ele>
        <time>2022-06-29T21:12:29Z</time>
      </trkpt>
      <trkpt lat="47.1132" lon="4.04093">
        <ele>627</ele>
        <time>2022-06-29T21:10:48Z</time>
      </trkpt>
      <trkpt lat="47.11425" lon="4.04026">
        <ele>638</ele>
        <time>2022-06-29T21:08:15Z</time>
      </trkpt>
      <trkpt lat="47.11497" lon="4.04026">
        <ele>650</ele>
        <time>2022-06-29T21:06:39Z</time>
      </trkpt>
      <trkpt lat="47.11573" lon="4.04079">
        <ele>657</ele>
        <time>2022-06-29T21:04:47Z</time>
      </trkpt>
      <trkpt lat="47.1162" lon="4.04143">
        <ele>653</ele>
        <time>2022-06-29T21:03:21Z</time>
      </trkpt>
      <trkpt lat="47.11647" lon="4.04152">
        <ele>650</ele>
        <time>2022-06-29T21:02:44Z</time>
      </trkpt>
      <trkpt lat="47.11654" lon="4.04164">
        <ele>649</ele>
        <time>2022-06-29T21:02:30Z</time>
      </trkpt>
      <trkpt lat="47.11638" lon="4.042">
        <ele>647</ele>
        <time>2022-06-29T21:01:51Z</time>
      </trkpt>
      <trkpt lat="47.1165" lon="4.04223">
        <ele>644</ele>
        <time>2022-06-29T21:01:25Z</time>
      </trkpt>
      <trkpt lat="47.11714" lon="4.0425">
        <ele>638</ele>
        <time>2022-06-29T20:59:56Z</time>
      </trkpt>
      <trkpt lat="47.11729" lon="4.0428">
        <ele>640</ele>
        <time>2022-06-29T20:59:22Z</time>
      </trkpt>
      <trkpt lat="47.11782" lon="4.04297">
        <ele>646</ele>
        <time>2022-06-29T20:58:10Z</time>
      </trkpt>
      <trkpt lat="47.11799" lon="4.04293">
        <ele>648</ele>
        <time>2022-06-29T20:57:47Z</time>
      </trkpt>
      <trkpt lat="47.1182" lon="4.04294">
        <ele>650</ele>
        <time>2022-06-29T20:57:19Z</time>
      </trkpt>
      <trkpt lat="47.11869" lon="4.04344">
        <ele>658</ele>
        <time>2022-06-29T20:55:59Z</time>
      </trkpt>
      <trkpt lat="47.1196" lon="4.04455">
        <ele>666</ele>
        <time>2022-06-29T20:53:21Z</time>
      </trkpt>
      <trkpt lat="47.12015" lon="4.04507">
        <ele>668</ele>
        <time>2022-06-29T20:51:54Z</time>
      </trkpt>
      <trkpt lat="47.12039" lon="4.04598">
        <ele>670</ele>
        <time>2022-06-29T20:50:25Z</time>
      </trkpt>
      <trkpt lat="47.12105" lon="4.04711">
        <ele>672</ele>
        <time>2022-06-29T20:48:10Z</time>
      </trkpt>
      <trkpt lat="47.1214" lon="4.04801">
        <ele>677</ele>
        <time>2022-06-29T20:46:36Z</time>
      </trkpt>
      <trkpt lat="47.12199" lon="4.04848">
        <ele>680</ele>
        <time>2022-06-29T20:45:06Z</time>
      </trkpt>
      <trkpt lat="47.12223" lon="4.04884">
        <ele>682</ele>
        <time>2022-06-29T20:44:21Z</time>
      </trkpt>
      <trkpt lat="47.12304" lon="4.04948">
        <ele>679</ele>
        <time>2022-06-29T20:42:18Z</time>
      </trkpt>
      <trkpt lat="47.12329" lon="4.04949">
        <ele>675</ele>
        <time>2022-06-29T20:41:45Z</time>
      </trkpt>
      <trkpt lat="47.12381" lon="4.04997">
        <ele>670</ele>
        <time>2022-06-29T20:40:23Z</time>
      </trkpt>
      <trkpt lat="47.12424" lon="4.05145">
        <ele>662</ele>
        <time>2022-06-29T20:37:56Z</time>
      </trkpt>
      <trkpt lat="47.12417" lon="4.0518">
        <ele>661</ele>
        <time>2022-06-29T20:37:23Z</time>
      </trkpt>
      <trkpt lat="47.12441" lon="4.05203">
        <ele>661</ele>
        <time>2022-06-29T20:36:45Z</time>
      </trkpt>
      <trkpt lat="47.12448" lon="4.0525">
        <ele>663</ele>
        <time>2022-06-29T20:36:01Z</time>
      </trkpt>
      <trkpt lat="47.12409" lon="4.05347">
        <ele>667</ele>
        <time>2022-06-29T20:34:19Z</time>
      </trkpt>
      <trkpt lat="47.12406" lon="4.05423">
        <ele>676</ele>
        <time>2022-06-29T20:33:10Z</time>
      </trkpt>
      <trkpt lat="47.12425" lon="4.05451">
        <ele>680</ele>
        <time>2022-06-29T20:32:34Z</time>
      </trkpt>
      <trkpt lat="47.12475" lon="4.05437">
        <ele>680</ele>
        <time>2022-06-29T20:31:26Z</time>
      </trkpt>
      <trkpt lat="47.12541" lon="4.05501">
        <ele>687</ele>
        <time>2022-06-29T20:29:41Z</time>
      </trkpt>
      <trkpt lat="47.12561" lon="4.05547">
        <ele>691</ele>
        <time>2022-06-29T20:28:51Z</time>
      </trkpt>
      <trkpt lat="47.1258" lon="4.05688">
        <ele>700</ele>
        <time>2022-06-29T20:26:41Z</time>
      </trkpt>
      <trkpt lat="47.12609" lon="4.05755">
        <ele>703</ele>
        <time>2022-06-29T20:25:28Z</time>
      </trkpt>
      <trkpt lat="47.1269" lon="4.05869">
        <ele>709</ele>
        <time>2022-06-29T20:22:59Z</time>
      </trkpt>
      <trkpt lat="47.12785" lon="4.05965">
        <ele>712</ele>
        <time>2022-06-29T20:20:25Z</time>
      </trkpt>
      <trkpt lat="47.12816" lon="4.05992">
        <ele>712</ele>
        <time>2022-06-29T20:19:37Z</time>
      </trkpt>
      <trkpt lat="47.12841" lon="4.06067">
        <ele>714</ele>
        <time>2022-06-29T20:18:21Z</time>
      </trkpt>
      <trkpt lat="47.12733" lon="4.06356">
        <ele>691</ele>
        <time>2022-06-29T20:13:22Z</time>
      </trkpt>
      <trkpt lat="47.12679" lon="4.06577">
        <ele>678</ele>
        <time>2022-06-29T20:09:48Z</time>
      </trkpt>
      <trkpt lat="47.12714" lon="4.06593">
        <ele>675</ele>
        <time>2022-06-29T20:09:00Z</time>
      </trkpt>
      <trkpt lat="47.12812" lon="4.06566">
        <ele>667</ele>
        <time>2022-06-29T20:06:46Z</time>
      </trkpt>
      <trkpt lat="47.1285" lon="4.06565">
        <ele>662</ele>
        <time>2022-06-29T20:05:56Z</time>
      </trkpt>
      <trkpt lat="47.12926" lon="4.06491">
        <ele>658</ele>
        <time>2022-06-29T20:03:54Z</time>
      </trkpt>
      <trkpt lat="47.12954" lon="4.06492">
        <ele>660</ele>
        <time>2022-06-29T20:03:17Z</time>
      </trkpt>
      <trkpt lat="47.13014" lon="4.06538">
        <ele>660</ele>
        <time>2022-06-29T20:01:46Z</time>
      </trkpt>
      <trkpt lat="47.13104" lon="4.06652">
        <ele>655</ele>
        <time>2022-06-29T19:59:08Z</time>
      </trkpt>
      <trkpt lat="47.13131" lon="4.06663">
        <ele>655</ele>
        <time>2022-06-29T19:58:31Z</time>
      </trkpt>
      <trkpt lat="47.13299" lon="4.06661">
        <ele>645</ele>
        <time>2022-06-29T19:54:46Z</time>
      </trkpt>
      <trkpt lat="47.13342" lon="4.06642">
        <ele>643</ele>
        <time>2022-06-29T19:53:46Z</time>
      </trkpt>
      <trkpt lat="47.13394" lon="4.06682">
        <ele>636</ele>
        <time>2022-06-29T19:52:28Z</time>
      </trkpt>
      <trkpt lat="47.13432" lon="4.06736">
        <ele>632</ele>
        <time>2022-06-29T19:51:18Z</time>
      </trkpt>
      <trkpt lat="47.13459" lon="4.06813">
        <ele>627</ele>
        <time>2022-06-29T19:49:59Z</time>
      </trkpt>
      <trkpt lat="47.13466" lon="4.06875">
        <ele>625</ele>
        <time>2022-06-29T19:49:02Z</time>
      </trkpt>
      <trkpt lat="47.135" lon="4.06942">
        <ele>625</ele>
        <time>2022-06-29T19:47:46Z</time>
      </trkpt>
      <trkpt lat="47.13547" lon="4.06971">
        <ele>628</ele>
        <time>2022-06-29T19:46:38Z</time>
      </trkpt>
      <trkpt lat="47.13593" lon="4.06978">
        <ele>629</ele>
        <time>2022-06-29T19:45:36Z</time>
      </trkpt>
      <trkpt lat="47.13645" lon="4.06964">
        <ele>631</ele>
        <time>2022-06-29T19:44:26Z</time>
      </trkpt>
      <trkpt lat="47.13753" lon="4.0697">
        <ele>632</ele>
        <time>2022-06-29T19:42:01Z</time>
      </trkpt>
      <trkpt lat="47.13814" lon="4.06938">
        <ele>624</ele>
        <time>2022-06-29T19:40:35Z</time>
      </trkpt>
      <trkpt lat="47.13866" lon="4.0695">
        <ele>625</ele>
        <time>2022-06-29T19:39:25Z</time>
      </trkpt>
      <trkpt lat="47.13906" lon="4.06882">
        <ele>623</ele>
        <time>2022-06-29T19:38:03Z</time>
      </trkpt>
      <trkpt lat="47.13901" lon="4.0683">
        <ele>627</ele>
        <time>2022-06-29T19:37:16Z</time>
      </trkpt>
      <trkpt lat="47.13905" lon="4.06797">
        <ele>628</ele>
        <time>2022-06-29T19:36:45Z</time>
      </trkpt>
      <trkpt lat="47.1393" lon="4.0678">
        <ele>632</ele>
        <time>2022-06-29T19:36:08Z</time>
      </trkpt>
      <trkpt lat="47.13966" lon="4.0675">
        <ele>638</ele>
        <time>2022-06-29T19:35:13Z</time>
      </trkpt>
      <trkpt lat="47.13996" lon="4.06737">
        <ele>644</ele>
        <time>2022-06-29T19:34:31Z</time>
      </trkpt>
      <trkpt lat="47.14023" lon="4.0671">
        <ele>649</ele>
        <time>2022-06-29T19:33:48Z</time>
      </trkpt>
      <trkpt lat="47.14148" lon="4.06674">
        <ele>654</ele>
        <time>2022-06-29T19:30:58Z</time>
      </trkpt>
      <trkpt lat="47.1422" lon="4.06673">
        <ele>651</ele>
        <time>2022-06-29T19:29:22Z</time>
      </trkpt>
      <trkpt lat="47.14312" lon="4.06704">
        <ele>646</ele>
        <time>2022-06-29T19:27:16Z</time>
      </trkpt>
      <trkpt lat="47.14397" lon="4.0672">
        <ele>640</ele>
        <time>2022-06-29T19:25:21Z</time>
      </trkpt>
      <trkpt lat="47.14458" lon="4.06672">
        <ele>634</ele>
        <time>2022-06-29T19:23:49Z</time>
      </trkpt>
      <trkpt lat="47.14483" lon="4.06671">
        <ele>632</ele>
        <time>2022-06-29T19:23:16Z</time>
      </trkpt>
      <trkpt lat="47.14496" lon="4.06696">
        <ele>632</ele>
        <time>2022-06-29T19:22:47Z</time>
      </trkpt>
      <trkpt lat="47.14559" lon="4.06784">
        <ele>623</ele>
        <time>2022-06-29T19:20:51Z</time>
      </trkpt>
      <trkpt lat="47.14571" lon="4.06845">
        <ele>620</ele>
        <time>2022-06-29T19:19:54Z</time>
      </trkpt>
      <trkpt lat="47.1455" lon="4.06918">
        <ele>618</ele>
        <time>2022-06-29T19:18:42Z</time>
      </trkpt>
      <trkpt lat="47.14537" lon="4.07045">
        <ele>605</ele>
        <time>2022-06-29T19:16:45Z</time>
      </trkpt>
      <trkpt lat="47.14571" lon="4.07013">
        <ele>604</ele>
        <time>2022-06-29T19:15:51Z</time>
      </trkpt>
      <trkpt lat="47.1458" lon="4.06979">
        <ele>606</ele>
        <time>2022-06-29T19:15:18Z</time>
      </trkpt>
      <trkpt lat="47.14701" lon="4.06784">
        <ele>601</ele>
        <time>2022-06-29T19:11:18Z</time>
      </trkpt>
      <trkpt lat="47.14757" lon="4.06735">
        <ele>601</ele>
        <time>2022-06-29T19:09:52Z</time>
      </trkpt>
      <trkpt lat="47.14821" lon="4.06621">
        <ele>611</ele>
        <time>2022-06-29T19:07:37Z</time>
      </trkpt>
      <trkpt lat="47.14882" lon="4.06609">
        <ele>612</ele>
        <time>2022-06-29T19:06:15Z</time>
      </trkpt>
      <trkpt lat="47.14987" lon="4.0654">
        <ele>623</ele>
        <time>2022-06-29T19:03:42Z</time>
      </trkpt>
      <trkpt lat="47.15079" lon="4.06527">
        <ele>618</ele>
        <time>2022-06-29T19:01:38Z</time>
      </trkpt>
      <trkpt lat="47.15159" lon="4.06438">
        <ele>623</ele>
        <time>2022-06-29T18:59:25Z</time>
      </trkpt>
      <trkpt lat="47.15192" lon="4.06319">
        <ele>628</ele>
        <time>2022-06-29T18:57:28Z</time>
      </trkpt>
      <trkpt lat="47.15201" lon="4.06251">
        <ele>628</ele>
        <time>2022-06-29T18:56:25Z</time>
      </trkpt>
      <trkpt lat="47.15198" lon="4.06096">
        <ele>627</ele>
        <time>2022-06-29T18:54:04Z</time>
      </trkpt>
      <trkpt lat="47.15205" lon="4.06036">
        <ele>626</ele>
        <time>2022-06-29T18:53:09Z</time>
      </trkpt>
      <trkpt lat="47.15192" lon="4.06005">
        <ele>629</ele>
        <time>2022-06-29T18:52:36Z</time>
      </trkpt>
      <trkpt lat="47.15191" lon="4.05941">
        <ele>625</ele>
        <time>2022-06-29T18:51:38Z</time>
      </trkpt>
      <trkpt lat="47.15183" lon="4.05888">
        <ele>624</ele>
        <time>2022-06-29T18:50:49Z</time>
      </trkpt>
      <trkpt lat="47.15191" lon="4.05827">
        <ele>621</ele>
        <time>2022-06-29T18:49:52Z</time>
      </trkpt>
      <trkpt lat="47.15192" lon="4.05787">
        <ele>620</ele>
        <time>2022-06-29T18:49:16Z</time>
      </trkpt>
      <trkpt lat="47.15188" lon="4.05725">
        <ele>620</ele>
        <time>2022-06-29T18:48:19Z</time>
      </trkpt>
      <trkpt lat="47.15203" lon="4.05682">
        <ele>620</ele>
        <time>2022-06-29T18:47:36Z</time>
      </trkpt>
      <trkpt lat="47.15326" lon="4.05525">
        <ele>624</ele>
        <time>2022-06-29T18:43:58Z</time>
      </trkpt>
      <trkpt lat="47.15399" lon="4.05463">
        <ele>627</ele>
        <time>2022-06-29T18:42:06Z</time>
      </trkpt>
      <trkpt lat="47.15426" lon="4.05459">
        <ele>626</ele>
        <time>2022-06-29T18:41:30Z</time>
      </trkpt>
      <trkpt lat="47.1545" lon="4.05473">
        <ele>624</ele>
        <time>2022-06-29T18:40:55Z</time>
      </trkpt>
      <trkpt lat="47.15534" lon="4.05439">
        <ele>623</ele>
        <time>2022-06-29T18:38:59Z</time>
      </trkpt>
      <trkpt lat="47.15574" lon="4.0541">
        <ele>622</ele>
        <time>2022-06-29T18:37:59Z</time>
      </trkpt>
      <trkpt lat="47.15586" lon="4.05379">
        <ele>622</ele>
        <time>2022-06-29T18:37:27Z</time>
      </trkpt>
      <trkpt lat="47.15623" lon="4.05315">
        <ele>619</ele>
        <time>2022-06-29T18:36:11Z</time>
      </trkpt>
      <trkpt lat="47.15726" lon="4.05269">
        <ele>612</ele>
        <time>2022-06-29T18:33:47Z</time>
      </trkpt>
      <trkpt lat="47.15782" lon="4.05266">
        <ele>610</ele>
        <time>2022-06-29T18:32:32Z</time>
      </trkpt>
      <trkpt lat="47.15801" lon="4.05229">
        <ele>610</ele>
        <time>2022-06-29T18:31:50Z</time>
      </trkpt>
      <trkpt lat="47.15814" lon="4.05112">
        <ele>612</ele>
        <time>2022-06-29T18:30:03Z</time>
      </trkpt>
      <trkpt lat="47.15829" lon="4.05072">
        <ele>612</ele>
        <time>2022-06-29T18:29:21Z</time>
      </trkpt>
      <trkpt lat="47.15885" lon="4.05048">
        <ele>613</ele>
        <time>2022-06-29T18:28:03Z</time>
      </trkpt>
      <trkpt lat="47.15918" lon="4.05057">
        <ele>612</ele>
        <time>2022-06-29T18:27:19Z</time>
      </trkpt>
      <trkpt lat="47.1601" lon="4.05209">
        <ele>606</ele>
        <time>2022-06-29T18:24:14Z</time>
      </trkpt>
      <trkpt lat="47.16153" lon="4.05238">
        <ele>602</ele>
        <time>2022-06-29T18:21:01Z</time>
      </trkpt>
      <trkpt lat="47.16191" lon="4.05255">
        <ele>602</ele>
        <time>2022-06-29T18:20:08Z</time>
      </trkpt>
      <trkpt lat="47.16519" lon="4.05686">
        <ele>588</ele>
        <time>2022-06-29T18:10:21Z</time>
      </trkpt>
      <trkpt lat="47.16468" lon="4.05862">
        <ele>587</ele>
        <time>2022-06-29T18:07:28Z</time>
      </trkpt>
      <trkpt lat="47.16566" lon="4.0583">
        <ele>592</ele>
        <time>2022-06-29T18:05:14Z</time>
      </trkpt>
      <trkpt lat="47.16626" lon="4.05874">
        <ele>593</ele>
        <time>2022-06-29T18:03:44Z</time>
      </trkpt>
      <trkpt lat="47.1675" lon="4.05879">
        <ele>594</ele>
        <time>2022-06-29T18:00:59Z</time>
      </trkpt>
      <trkpt lat="47.168" lon="4.05867">
        <ele>595</ele>
        <time>2022-06-29T17:59:51Z</time>
      </trkpt>
      <trkpt lat="47.16833" lon="4.05898">
        <ele>593</ele>
        <time>2022-06-29T17:58:59Z</time>
      </trkpt>
      <trkpt lat="47.16879" lon="4.05989">
        <ele>590</ele>
        <time>2022-06-29T17:57:16Z</time>
      </trkpt>
      <trkpt lat="47.16917" lon="4.05989">
        <ele>589</ele>
        <time>2022-06-29T17:56:25Z</time>
      </trkpt>
      <trkpt lat="47.16994" lon="4.0595">
        <ele>588</ele>
        <time>2022-06-29T17:54:37Z</time>
      </trkpt>
      <trkpt lat="47.17026" lon="4.05964">
        <ele>589</ele>
        <time>2022-06-29T17:53:52Z</time>
      </trkpt>
      <trkpt lat="47.17033" lon="4.05988">
        <ele>589</ele>
        <time>2022-06-29T17:53:28Z</time>
      </trkpt>
      <trkpt lat="47.1704" lon="4.06101">
        <ele>589</ele>
        <time>2022-06-29T17:51:45Z</time>
      </trkpt>
      <trkpt lat="47.17081" lon="4.06192">
        <ele>589</ele>
        <time>2022-06-29T17:50:06Z</time>
      </trkpt>
      <trkpt lat="47.17164" lon="4.06194">
        <ele>590</ele>
        <time>2022-06-29T17:48:16Z</time>
      </trkpt>
      <trkpt lat="47.17215" lon="4.0615">
        <ele>589</ele>
        <time>2022-06-29T17:46:57Z</time>
      </trkpt>
      <trkpt lat="47.17252" lon="4.06097">
        <ele>589</ele>
        <time>2022-06-29T17:45:48Z</time>
      </trkpt>
      <trkpt lat="47.17287" lon="4.06015">
        <ele>588</ele>
        <time>2022-06-29T17:44:20Z</time>
      </trkpt>
      <trkpt lat="47.1728" lon="4.0598">
        <ele>588</ele>
        <time>2022-06-29T17:43:47Z</time>
      </trkpt>
      <trkpt lat="47.17195" lon="4.05856">
        <ele>589</ele>
        <time>2022-06-29T17:41:07Z</time>
      </trkpt>
      <trkpt lat="47.17101" lon="4.05802">
        <ele>588</ele>
        <time>2022-06-29T17:38:53Z</time>
      </trkpt>
      <trkpt lat="47.17103" lon="4.05763">
        <ele>588</ele>
        <time>2022-06-29T17:38:17Z</time>
      </trkpt>
      <trkpt lat="47.17124" lon="4.05722">
        <ele>588</ele>
        <time>2022-06-29T17:37:30Z</time>
      </trkpt>
      <trkpt lat="47.17186" lon="4.05727">
        <ele>587</ele>
        <time>2022-06-29T17:36:08Z</time>
      </trkpt>
      <trkpt lat="47.17199" lon="4.05692">
        <ele>586</ele>
        <time>2022-06-29T17:35:31Z</time>
      </trkpt>
      <trkpt lat="47.17218" lon="4.05661">
        <ele>585</ele>
        <time>2022-06-29T17:34:54Z</time>
      </trkpt>
      <trkpt lat="47.17215" lon="4.05618">
        <ele>588</ele>
        <time>2022-06-29T17:34:14Z</time>
      </trkpt>
      <trkpt lat="47.17227" lon="4.05594">
        <ele>589</ele>
        <time>2022-06-29T17:33:47Z</time>
      </trkpt>
      <trkpt lat="47.17301" lon="4.05547">
        <ele>590</ele>
        <time>2022-06-29T17:32:00Z</time>
      </trkpt>
      <trkpt lat="47.17382" lon="4.05536">
        <ele>590</ele>
        <time>2022-06-29T17:30:11Z</time>
      </trkpt>
      <trkpt lat="47.17399" lon="4.05553">
        <ele>591</ele>
        <time>2022-06-29T17:29:44Z</time>
      </trkpt>
      <trkpt lat="47.17486" lon="4.05626">
        <ele>587</ele>
        <time>2022-06-29T17:27:30Z</time>
      </trkpt>
      <trkpt lat="47.17553" lon="4.05621">
        <ele>587</ele>
        <time>2022-06-29T17:26:01Z</time>
      </trkpt>
      <trkpt lat="47.17684" lon="4.05464">
        <ele>597</ele>
        <time>2022-06-29T17:22:15Z</time>
      </trkpt>
      <trkpt lat="47.1772" lon="4.05469">
        <ele>594</ele>
        <time>2022-06-29T17:21:27Z</time>
      </trkpt>
      <trkpt lat="47.17889" lon="4.05584">
        <ele>589</ele>
        <time>2022-06-29T17:17:18Z</time>
      </trkpt>
      <trkpt lat="47.1795" lon="4.0558">
        <ele>592</ele>
        <time>2022-06-29T17:15:57Z</time>
      </trkpt>
      <trkpt lat="47.18005" lon="4.05557">
        <ele>594</ele>
        <time>2022-06-29T17:14:41Z</time>
      </trkpt>
      <trkpt lat="47.1806" lon="4.05515">
        <ele>592</ele>
        <time>2022-06-29T17:13:18Z</time>
      </trkpt>
      <trkpt lat="47.18087" lon="4.05533">
        <ele>592</ele>
        <time>2022-06-29T17:12:38Z</time>
      </trkpt>
      <trkpt lat="47.18102" lon="4.05626">
        <ele>590</ele>
        <time>2022-06-29T17:11:12Z</time>
      </trkpt>
      <trkpt lat="47.18121" lon="4.05658">
        <ele>589</ele>
        <time>2022-06-29T17:10:33Z</time>
      </trkpt>
      <trkpt lat="47.18174" lon="4.05658">
        <ele>590</ele>
        <time>2022-06-29T17:09:22Z</time>
      </trkpt>
      <trkpt lat="47.18293" lon="4.05629">
        <ele>590</ele>
        <time>2022-06-29T17:06:41Z</time>
      </trkpt>
      <trkpt lat="47.18345" lon="4.05565">
        <ele>594</ele>
        <time>2022-06-29T17:05:11Z</time>
      </trkpt>
      <trkpt lat="47.18409" lon="4.05443">
        <ele>592</ele>
        <time>2022-06-29T17:02:51Z</time>
      </trkpt>
      <trkpt lat="47.18425" lon="4.05432">
        <ele>591</ele>
        <time>2022-06-29T17:02:28Z</time>
      </trkpt>
      <trkpt lat="47.18526" lon="4.05449">
        <ele>593</ele>
        <time>2022-06-29T17:00:12Z</time>
      </trkpt>
      <trkpt lat="47.18547" lon="4.0548">
        <ele>595</ele>
        <time>2022-06-29T16:59:32Z</time>
      </trkpt>
      <trkpt lat="47.18553" lon="4.05521">
        <ele>594</ele>
        <time>2022-06-29T16:58:54Z</time>
      </trkpt>
      <trkpt lat="47.1859" lon="4.05548">
        <ele>594</ele>
        <time>2022-06-29T16:57:59Z</time>
      </trkpt>
      <trkpt lat="47.18731" lon="4.05539">
        <ele>597</ele>
        <time>2022-06-29T16:54:51Z</time>
      </trkpt>
      <trkpt lat="47.188" lon="4.05594">
        <ele>591</ele>
        <time>2022-06-29T16:53:06Z</time>
      </trkpt>
      <trkpt lat="47.18884" lon="4.05718">
        <ele>589</ele>
        <time>2022-06-29T16:50:27Z</time>
      </trkpt>
      <trkpt lat="47.18869" lon="4.05856">
        <ele>589</ele>
        <time>2022-06-29T16:48:21Z</time>
      </trkpt>
      <trkpt lat="47.18889" lon="4.05969">
        <ele>590</ele>
        <time>2022-06-29T16:46:35Z</time>
      </trkpt>
      <trkpt lat="47.1889" lon="4.06055">
        <ele>588</ele>
        <time>2022-06-29T16:45:17Z</time>
      </trkpt>
      <trkpt lat="47.18929" lon="4.06178">
        <ele>589</ele>
        <time>2022-06-29T16:43:14Z</time>
      </trkpt>
      <trkpt lat="47.1896" lon="4.06222">
        <ele>591</ele>
        <time>2022-06-29T16:42:16Z</time>
      </trkpt>
      <trkpt lat="47.19017" lon="4.06245">
        <ele>592</ele>
        <time>2022-06-29T16:40:57Z</time>
      </trkpt>
      <trkpt lat="47.19058" lon="4.06279">
        <ele>588</ele>
        <time>2022-06-29T16:39:54Z</time>
      </trkpt>
      <trkpt lat="47.19127" lon="4.0623">
        <ele>590</ele>
        <time>2022-06-29T16:38:12Z</time>
      </trkpt>
      <trkpt lat="47.19235" lon="4.06136">
        <ele>589</ele>
        <time>2022-06-29T16:35:25Z</time>
      </trkpt>
      <trkpt lat="47.19306" lon="4.06093">
        <ele>593</ele>
        <time>2022-06-29T16:33:42Z</time>
      </trkpt>
      <trkpt lat="47.19432" lon="4.05997">
        <ele>591</ele>
        <time>2022-06-29T16:30:33Z</time>
      </trkpt>
      <trkpt lat="47.19447" lon="4.05915">
        <ele>597</ele>
        <time>2022-06-29T16:29:16Z</time>
      </trkpt>
      <trkpt lat="47.1953" lon="4.05719">
        <ele>590</ele>
        <time>2022-06-29T16:25:46Z</time>
      </trkpt>
      <trkpt lat="47.19541" lon="4.05668">
        <ele>591</ele>
        <time>2022-06-29T16:24:58Z</time>
      </trkpt>
      <trkpt lat="47.19766" lon="4.05737">
        <ele>593</ele>
        <time>2022-06-29T16:19:51Z</time>
      </trkpt>
      <trkpt lat="47.19761" lon="4.05844">
        <ele>598</ele>
        <time>2022-06-29T16:18:14Z</time>
      </trkpt>
    </trkseg>
  </trk>
</gpx>